Observation data for Fort Lancaster on 08/14/2019      Previous  Date  Next       Current Mesonet Observations  Soil Data  Daily Summary Page  Observations in Plain Language
KLA1 140500Z 33001KT 27/21 A3001 RMK A01 T02650210  RH  072%=      5-min Rain = 0
KLA1 140501Z 23001KT 27/22 A3001 RMK A01 T02660223  RH  077%=      5-min Rain = 0
KLA1 140502Z 23002KT 27/23 A3001 RMK A01 T02650229  RH  080%=      5-min Rain = 0
KLA1 140503Z 25002KT 26/23 A3001 RMK A01 T02640229  RH  081%=      5-min Rain = 0
KLA1 140504Z 26002KT 26/23 A3001 RMK A01 T02620229  RH  082%=      5-min Rain = 0
KLA1 140505Z 28002KT 26/23 A3001 RMK A01 T02600229  RH  083%=      5-min Rain = 0
KLA1 140506Z 28002KT 26/23 A3001 RMK A01 T02580230  RH  084%=      5-min Rain = 0
KLA1 140507Z 27002KT 26/23 A3001 RMK A01 T02580230  RH  085%=      5-min Rain = 0
KLA1 140508Z 28001KT 26/23 A3001 RMK A01 T02570232  RH  086%=      5-min Rain = 0
KLA1 140509Z 28000KT 26/23 A3001 RMK A01 T02570231  RH  086%=      5-min Rain = 0
KLA1 140510Z 27001KT 26/23 A3001 RMK A01 T02560233  RH  087%=      5-min Rain = 0
KLA1 140525Z 23002KT 25/23 A3001 RMK A01 T02530228  RH  086%=      5-min Rain = 0
KLA1 140526Z 24002KT 25/23 A3001 RMK A01 T02530228  RH  086%=      5-min Rain = 0
KLA1 140527Z 24002KT 25/23 A3001 RMK A01 T02530229  RH  086%=      5-min Rain = 0
KLA1 140528Z 25001KT 25/23 A3001 RMK A01 T02540232  RH  087%=      5-min Rain = 0
KLA1 140529Z 25001KT 25/23 A3001 RMK A01 T02540232  RH  088%=      5-min Rain = 0
KLA1 140530Z 27001KT 25/23 A3001 RMK A01 T02540233  RH  088%=      5-min Rain = 0
KLA1 140531Z 28002KT 25/23 A3001 RMK A01 T02540233  RH  088%=      5-min Rain = 0
KLA1 140532Z 27002KT 25/23 A3001 RMK A01 T02540232  RH  088%=      5-min Rain = 0
KLA1 140533Z 26002KT 25/23 A3001 RMK A01 T02530231  RH  087%=      5-min Rain = 0
KLA1 140534Z 27002KT 25/23 A3001 RMK A01 T02530229  RH  086%=      5-min Rain = 0
KLA1 140535Z 27002KT 25/23 A3002 RMK A01 T02540228  RH  086%=      5-min Rain = 0
KLA1 140536Z 25002KT 25/23 A3001 RMK A01 T02530229  RH  086%=      5-min Rain = 0
KLA1 140537Z 28002KT 25/23 A3002 RMK A01 T02540230  RH  087%=      5-min Rain = 0
KLA1 140538Z 29002KT 25/23 A3002 RMK A01 T02540230  RH  086%=      5-min Rain = 0
KLA1 140539Z 29002KT 25/23 A3002 RMK A01 T02540229  RH  086%=      5-min Rain = 0
KLA1 140540Z 28002KT 25/23 A3002 RMK A01 T02540228  RH  086%=      5-min Rain = 0
KLA1 140541Z 28003KT 25/23 A3002 RMK A01 T02540229  RH  086%=      5-min Rain = 0
KLA1 140542Z 27003KT 25/23 A3002 RMK A01 T02540229  RH  086%=      5-min Rain = 0
KLA1 140543Z 27002KT 25/23 A3002 RMK A01 T02540226  RH  085%=      5-min Rain = 0
KLA1 140544Z 28002KT 25/23 A3002 RMK A01 T02540227  RH  085%=      5-min Rain = 0
KLA1 140545Z 28002KT 25/23 A3002 RMK A01 T02540227  RH  085%=      5-min Rain = 0
KLA1 140546Z 27001KT 25/23 A3002 RMK A01 T02530226  RH  085%=      5-min Rain = 0
KLA1 140547Z 26001KT 25/23 A3002 RMK A01 T02530226  RH  085%=      5-min Rain = 0
KLA1 140548Z 27001KT 25/23 A3002 RMK A01 T02530227  RH  085%=      5-min Rain = 0
KLA1 140549Z 26001KT 25/23 A3002 RMK A01 T02530228  RH  086%=      5-min Rain = 0
KLA1 140550Z 27002KT 25/23 A3002 RMK A01 T02530229  RH  087%=      5-min Rain = 0
KLA1 140551Z 28001KT 25/23 A3002 RMK A01 T02530230  RH  087%=      5-min Rain = 0
KLA1 140552Z 28000KT 25/23 A3002 RMK A01 T02530230  RH  087%=      5-min Rain = 0
KLA1 140553Z 27001KT 25/23 A3002 RMK A01 T02530230  RH  087%=      5-min Rain = 0
KLA1 140554Z 26001KT 25/23 A3002 RMK A01 T02520231  RH  088%=      5-min Rain = 0
KLA1 140555Z 28002KT 25/23 A3002 RMK A01 T02520233  RH  089%=      5-min Rain = 0
KLA1 140556Z 28002KT 25/23 A3002 RMK A01 T02520232  RH  089%=      5-min Rain = 0
KLA1 140557Z 29002KT 25/23 A3002 RMK A01 T02520232  RH  089%=      5-min Rain = 0
KLA1 140558Z 30002KT 25/23 A3002 RMK A01 T02510231  RH  089%=      5-min Rain = 0
KLA1 140559Z 31002KT 25/23 A3002 RMK A01 T02510231  RH  089%=      5-min Rain = 0
KLA1 140600Z 31002KT 25/23 A3002 RMK A01 T02510233  RH  090%=      5-min Rain = 0
KLA1 140601Z 31002KT 25/23 A3002 RMK A01 T02510233  RH  090%=      5-min Rain = 0
KLA1 140602Z 31002KT 25/24 A3002 RMK A01 T02510235  RH  091%=      5-min Rain = 0
KLA1 140603Z 33001KT 25/24 A3002 RMK A01 T02510235  RH  091%=      5-min Rain = 0
KLA1 140604Z 34001KT 25/24 A3002 RMK A01 T02510237  RH  092%=      5-min Rain = 0
KLA1 140605Z 34001KT 25/24 A3002 RMK A01 T02510238  RH  093%=      5-min Rain = 0
KLA1 140606Z 34000KT 25/24 A3002 RMK A01 T02510239  RH  093%=      5-min Rain = 0
KLA1 140607Z 00000KT 25/24 A3002 RMK A01 T02510240  RH  094%=      5-min Rain = 0
KLA1 140608Z 00000KT 25/24 A3002 RMK A01 T02510241  RH  094%=      5-min Rain = 0
KLA1 140609Z 25000KT 25/24 A3002 RMK A01 T02510241  RH  094%=      5-min Rain = 0
KLA1 140610Z 26001KT 25/24 A3002 RMK A01 T02510238  RH  093%=      5-min Rain = 0
KLA1 140611Z 26002KT 25/24 A3002 RMK A01 T02500237  RH  092%=      5-min Rain = 0
KLA1 140612Z 25002KT 25/24 A3002 RMK A01 T02490237  RH  093%=      5-min Rain = 0
KLA1 140613Z 26002KT 25/24 A3002 RMK A01 T02490239  RH  094%=      5-min Rain = 0
KLA1 140614Z 27002KT 25/24 A3002 RMK A01 T02490238  RH  093%=      5-min Rain = 0
KLA1 140615Z 27003KT 25/24 A3002 RMK A01 T02490237  RH  093%=      5-min Rain = 0
KLA1 140616Z 27003KT 25/24 A3002 RMK A01 T02490235  RH  092%=      5-min Rain = 0
KLA1 140617Z 28003KT 25/23 A3002 RMK A01 T02490234  RH  092%=      5-min Rain = 0
KLA1 140618Z 30003KT 25/23 A3002 RMK A01 T02480232  RH  091%=      5-min Rain = 0
KLA1 140619Z 30003KT 25/23 A3002 RMK A01 T02480232  RH  091%=      5-min Rain = 0
KLA1 140620Z 30003KT 25/23 A3002 RMK A01 T02480232  RH  090%=      5-min Rain = 0
KLA1 140621Z 30002KT 25/23 A3002 RMK A01 T02480232  RH  090%=      5-min Rain = 0
KLA1 140622Z 28001KT 25/23 A3002 RMK A01 T02490233  RH  091%=      5-min Rain = 0
KLA1 140623Z 26001KT 25/23 A3002 RMK A01 T02490234  RH  091%=      5-min Rain = 0
KLA1 140624Z 18002KT 25/23 A3002 RMK A01 T02490233  RH  091%=      5-min Rain = 0
KLA1 140625Z 18004KT 25/23 A3003 RMK A01 T02490234  RH  092%=      5-min Rain = 0
KLA1 140626Z 19004KT 25/23 A3003 RMK A01 T02480234  RH  092%=      5-min Rain = 0
KLA1 140627Z 20004KT 25/23 A3002 RMK A01 T02480234  RH  092%=      5-min Rain = 0
KLA1 140628Z 22003KT 25/23 A3002 RMK A01 T02480233  RH  091%=      5-min Rain = 0
KLA1 140629Z 24002KT 25/23 A3002 RMK A01 T02480232  RH  091%=      5-min Rain = 0
KLA1 140630Z 28002KT 25/23 A3002 RMK A01 T02480232  RH  091%=      5-min Rain = 0
KLA1 140631Z 29003KT 25/23 A3002 RMK A01 T02480231  RH  090%=      5-min Rain = 0
KLA1 140632Z 30004KT 25/23 A3002 RMK A01 T02480230  RH  090%=      5-min Rain = 0
KLA1 140633Z 29004KT 25/23 A3002 RMK A01 T02480229  RH  089%=      5-min Rain = 0
KLA1 140634Z 30004KT 25/23 A3002 RMK A01 T02490229  RH  089%=      5-min Rain = 0
KLA1 140635Z 30005KT 25/23 A3002 RMK A01 T02490229  RH  089%=      5-min Rain = 0
KLA1 140636Z 30005KT 25/23 A3002 RMK A01 T02490229  RH  089%=      5-min Rain = 0
KLA1 140637Z 30004KT 25/23 A3003 RMK A01 T02490228  RH  088%=      5-min Rain = 0
KLA1 140638Z 31002KT 25/23 A3003 RMK A01 T02490228  RH  088%=      5-min Rain = 0
KLA1 140639Z 09002KT 25/23 A3003 RMK A01 T02490230  RH  089%=      5-min Rain = 0
KLA1 140640Z 11002KT 25/23 A3003 RMK A01 T02490231  RH  089%=      5-min Rain = 0
KLA1 140641Z 12001KT 25/23 A3003 RMK A01 T02490228  RH  088%=      5-min Rain = 0
KLA1 140642Z 00000KT 25/23 A3003 RMK A01 T02490225  RH  087%=      5-min Rain = 0
KLA1 140643Z 00000KT 25/23 A3003 RMK A01 T02490228  RH  088%=      5-min Rain = 0
KLA1 140644Z 00000KT 25/23 A3003 RMK A01 T02500229  RH  089%=      5-min Rain = 0
KLA1 140645Z 00000KT 25/23 A3003 RMK A01 T02500229  RH  088%=      5-min Rain = 0
KLA1 140646Z 28000KT 25/23 A3003 RMK A01 T02490229  RH  089%=      5-min Rain = 0
KLA1 140647Z 32001KT 25/23 A3003 RMK A01 T02490229  RH  089%=      5-min Rain = 0
KLA1 140648Z 32001KT 25/23 A3003 RMK A01 T02500230  RH  089%=      5-min Rain = 0
KLA1 140649Z 32002KT 25/23 A3003 RMK A01 T02500233  RH  090%=      5-min Rain = 0
KLA1 140650Z 31001KT 25/23 A3003 RMK A01 T02500234  RH  091%=      5-min Rain = 0
KLA1 140651Z 31001KT 25/23 A3002 RMK A01 T02500234  RH  091%=      5-min Rain = 0
KLA1 140652Z 27001KT 25/24 A3002 RMK A01 T02500235  RH  091%=      5-min Rain = 0
KLA1 140653Z 26001KT 25/23 A3002 RMK A01 T02500233  RH  090%=      5-min Rain = 0
KLA1 140654Z 26002KT 25/23 A3002 RMK A01 T02500230  RH  089%=      5-min Rain = 0
KLA1 140655Z 25002KT 25/23 A3002 RMK A01 T02500229  RH  088%=      5-min Rain = 0
KLA1 140656Z 25002KT 25/23 A3002 RMK A01 T02500228  RH  088%=      5-min Rain = 0
KLA1 140657Z 25002KT 25/23 A3002 RMK A01 T02500229  RH  088%=      5-min Rain = 0
KLA1 140658Z 25001KT 25/23 A3002 RMK A01 T02500232  RH  090%=      5-min Rain = 0
KLA1 140659Z 26001KT 25/23 A3002 RMK A01 T02510233  RH  090%=      5-min Rain = 0
KLA1 140700Z 28001KT 25/23 A3002 RMK A01 T02510233  RH  090%=      5-min Rain = 0
KLA1 140701Z 30001KT 25/23 A3002 RMK A01 T02500233  RH  090%=      5-min Rain = 0
KLA1 140702Z 31002KT 25/23 A3002 RMK A01 T02500234  RH  091%=      5-min Rain = 0
KLA1 140703Z 31003KT 25/23 A3002 RMK A01 T02500234  RH  090%=      5-min Rain = 0
KLA1 140704Z 31003KT 25/23 A3002 RMK A01 T02500230  RH  088%=      5-min Rain = 0
KLA1 140705Z 32002KT 25/23 A3002 RMK A01 T02500228  RH  088%=      5-min Rain = 0
KLA1 140706Z 01002KT 25/23 A3002 RMK A01 T02500228  RH  088%=      5-min Rain = 0
KLA1 140707Z 05002KT 25/23 A3002 RMK A01 T02500231  RH  089%=      5-min Rain = 0
KLA1 140708Z 06002KT 25/23 A3002 RMK A01 T02500234  RH  090%=      5-min Rain = 0
KLA1 140709Z 06001KT 25/23 A3002 RMK A01 T02500234  RH  091%=      5-min Rain = 0
KLA1 140710Z 06000KT 25/23 A3002 RMK A01 T02490234  RH  091%=      5-min Rain = 0
KLA1 140711Z 00000KT 25/24 A3002 RMK A01 T02490235  RH  092%=      5-min Rain = 0
KLA1 140712Z 00000KT 25/24 A3002 RMK A01 T02490235  RH  092%=      5-min Rain = 0
KLA1 140713Z 00000KT 25/24 A3002 RMK A01 T02490236  RH  092%=      5-min Rain = 0
KLA1 140714Z 00000KT 25/23 A3002 RMK A01 T02490234  RH  092%=      5-min Rain = 0
KLA1 140715Z 00000KT 25/24 A3002 RMK A01 T02490235  RH  092%=      5-min Rain = 0
KLA1 140716Z 00000KT 25/24 A3002 RMK A01 T02490236  RH  093%=      5-min Rain = 0
KLA1 140717Z 06000KT 25/24 A3002 RMK A01 T02490235  RH  092%=      5-min Rain = 0
KLA1 140718Z 04001KT 25/24 A3002 RMK A01 T02490236  RH  093%=      5-min Rain = 0
KLA1 140719Z 03000KT 25/24 A3002 RMK A01 T02490236  RH  093%=      5-min Rain = 0
KLA1 140720Z 03000KT 25/23 A3002 RMK A01 T02480233  RH  091%=      5-min Rain = 0
KLA1 140721Z 04001KT 25/23 A3002 RMK A01 T02480233  RH  091%=      5-min Rain = 0
KLA1 140722Z 05001KT 25/23 A3002 RMK A01 T02480234  RH  092%=      5-min Rain = 0
KLA1 140723Z 04001KT 25/24 A3002 RMK A01 T02490236  RH  093%=      5-min Rain = 0
KLA1 140724Z 04001KT 25/24 A3002 RMK A01 T02490236  RH  093%=      5-min Rain = 0
KLA1 140725Z 04001KT 25/24 A3002 RMK A01 T02490236  RH  092%=      5-min Rain = 0
KLA1 140726Z 05001KT 25/24 A3002 RMK A01 T02490235  RH  092%=      5-min Rain = 0
KLA1 140727Z 06001KT 25/23 A3002 RMK A01 T02490234  RH  091%=      5-min Rain = 0
KLA1 140728Z 05001KT 25/24 A3002 RMK A01 T02490235  RH  092%=      5-min Rain = 0
KLA1 140729Z 01000KT 25/24 A3002 RMK A01 T02490235  RH  092%=      5-min Rain = 0
KLA1 140730Z 00000KT 25/23 A3002 RMK A01 T02490233  RH  091%=      5-min Rain = 0
KLA1 140731Z 00000KT 25/23 A3002 RMK A01 T02490231  RH  090%=      5-min Rain = 0
KLA1 140732Z 35000KT 25/23 A3002 RMK A01 T02490231  RH  090%=      5-min Rain = 0
KLA1 140733Z 00000KT 25/23 A3002 RMK A01 T02490231  RH  089%=      5-min Rain = 0
KLA1 140734Z 08001KT 25/23 A3002 RMK A01 T02490228  RH  088%=      5-min Rain = 0
KLA1 140735Z 08001KT 25/23 A3002 RMK A01 T02500227  RH  087%=      5-min Rain = 0
KLA1 140736Z 08001KT 25/23 A3002 RMK A01 T02500225  RH  086%=      5-min Rain = 0
KLA1 140737Z 10001KT 25/23 A3002 RMK A01 T02510226  RH  086%=      5-min Rain = 0
KLA1 140738Z 10001KT 25/23 A3002 RMK A01 T02510227  RH  086%=      5-min Rain = 0
KLA1 140739Z 09001KT 25/23 A3002 RMK A01 T02510226  RH  086%=      5-min Rain = 0
KLA1 140740Z 08001KT 25/22 A3002 RMK A01 T02510223  RH  085%=      5-min Rain = 0
KLA1 140741Z 06001KT 25/22 A3002 RMK A01 T02520220  RH  083%=      5-min Rain = 0
KLA1 140742Z 06000KT 25/22 A3002 RMK A01 T02530223  RH  084%=      5-min Rain = 0
KLA1 140743Z 04001KT 25/23 A3002 RMK A01 T02540226  RH  085%=      5-min Rain = 0
KLA1 140744Z 03001KT 25/23 A3002 RMK A01 T02540228  RH  086%=      5-min Rain = 0
KLA1 140745Z 03001KT 25/23 A3002 RMK A01 T02530228  RH  086%=      5-min Rain = 0
KLA1 140746Z 03001KT 25/23 A3002 RMK A01 T02530229  RH  086%=      5-min Rain = 0
KLA1 140747Z 03001KT 25/23 A3002 RMK A01 T02530230  RH  087%=      5-min Rain = 0
KLA1 140748Z 04002KT 25/23 A3002 RMK A01 T02530229  RH  087%=      5-min Rain = 0
KLA1 140749Z 04001KT 25/23 A3002 RMK A01 T02520229  RH  087%=      5-min Rain = 0
KLA1 140750Z 04001KT 25/23 A3002 RMK A01 T02530230  RH  087%=      5-min Rain = 0
KLA1 140751Z 05001KT 25/23 A3002 RMK A01 T02520229  RH  087%=      5-min Rain = 0
KLA1 140752Z 05001KT 25/23 A3002 RMK A01 T02520229  RH  087%=      5-min Rain = 0
KLA1 140753Z 05001KT 25/23 A3002 RMK A01 T02520231  RH  088%=      5-min Rain = 0
KLA1 140754Z 05001KT 25/23 A3002 RMK A01 T02520230  RH  087%=      5-min Rain = 0
KLA1 140755Z 05001KT 25/23 A3002 RMK A01 T02520226  RH  085%=      5-min Rain = 0
KLA1 140756Z 05000KT 25/23 A3003 RMK A01 T02520228  RH  086%=      5-min Rain = 0
KLA1 140757Z 00000KT 25/23 A3003 RMK A01 T02530228  RH  086%=      5-min Rain = 0
KLA1 140758Z 00000KT 25/23 A3003 RMK A01 T02530231  RH  087%=      5-min Rain = 0
KLA1 140759Z 00000KT 25/23 A3003 RMK A01 T02530228  RH  086%=      5-min Rain = 0
KLA1 140800Z 00000KT 25/22 A3003 RMK A01 T02530221  RH  083%=      5-min Rain = 0
KLA1 140801Z 00000KT 25/22 A3003 RMK A01 T02530223  RH  083%=      5-min Rain = 0
KLA1 140802Z 00000KT 25/23 A3003 RMK A01 T02540226  RH  084%=      5-min Rain = 0
KLA1 140803Z 30000KT 25/23 A3003 RMK A01 T02540226  RH  084%=      5-min Rain = 0
KLA1 140804Z 29001KT 26/23 A3003 RMK A01 T02550227  RH  085%=      5-min Rain = 0
KLA1 140805Z 29001KT 25/23 A3003 RMK A01 T02540227  RH  085%=      5-min Rain = 0
KLA1 140806Z 29001KT 26/23 A3003 RMK A01 T02550229  RH  086%=      5-min Rain = 0
KLA1 140807Z 21000KT 26/23 A3003 RMK A01 T02550234  RH  088%=      5-min Rain = 0
KLA1 140808Z 20001KT 26/24 A3003 RMK A01 T02550235  RH  089%=      5-min Rain = 0
KLA1 140809Z 20001KT 26/24 A3003 RMK A01 T02550237  RH  090%=      5-min Rain = 0
KLA1 140810Z 20000KT 25/24 A3003 RMK A01 T02540235  RH  089%=      5-min Rain = 0
KLA1 140811Z 22000KT 25/23 A3003 RMK A01 T02530232  RH  088%=      5-min Rain = 0
KLA1 140812Z 22000KT 25/23 A3003 RMK A01 T02530232  RH  088%=      5-min Rain = 0
KLA1 140813Z 00000KT 25/23 A3003 RMK A01 T02520233  RH  089%=      5-min Rain = 0
KLA1 140814Z 00000KT 25/24 A3003 RMK A01 T02520236  RH  091%=      5-min Rain = 0
KLA1 140815Z 18000KT 25/24 A3003 RMK A01 T02530238  RH  092%=      5-min Rain = 0
KLA1 140816Z 19001KT 25/24 A3003 RMK A01 T02520237  RH  091%=      5-min Rain = 0
KLA1 140817Z 20002KT 25/24 A3003 RMK A01 T02520238  RH  092%=      5-min Rain = 0
KLA1 140818Z 21001KT 25/24 A3003 RMK A01 T02510239  RH  093%=      5-min Rain = 0
KLA1 140819Z 20001KT 25/24 A3003 RMK A01 T02510239  RH  093%=      5-min Rain = 0
KLA1 140820Z 00000KT 25/24 A3003 RMK A01 T02510241  RH  094%=      5-min Rain = 0
KLA1 140821Z 00000KT 25/24 A3003 RMK A01 T02510240  RH  094%=      5-min Rain = 0
KLA1 140822Z 00000KT 25/24 A3003 RMK A01 T02500237  RH  092%=      5-min Rain = 0
KLA1 140823Z 13000KT 25/24 A3003 RMK A01 T02490236  RH  092%=      5-min Rain = 0
KLA1 140824Z 13001KT 25/24 A3003 RMK A01 T02490236  RH  093%=      5-min Rain = 0
KLA1 140825Z 13000KT 25/24 A3003 RMK A01 T02490237  RH  093%=      5-min Rain = 0
KLA1 140826Z 13000KT 25/24 A3003 RMK A01 T02490239  RH  094%=      5-min Rain = 0
KLA1 140827Z 13001KT 25/24 A3003 RMK A01 T02490239  RH  094%=      5-min Rain = 0
KLA1 140828Z 13001KT 25/24 A3003 RMK A01 T02490241  RH  095%=      5-min Rain = 0
KLA1 140829Z 13000KT 25/24 A3003 RMK A01 T02490243  RH  096%=      5-min Rain = 0
KLA1 140830Z 00000KT 25/24 A3003 RMK A01 T02490242  RH  096%=      5-min Rain = 0
KLA1 140831Z 00000KT 25/24 A3003 RMK A01 T02480240  RH  095%=      5-min Rain = 0
KLA1 140832Z 00000KT 25/24 A3003 RMK A01 T02470238  RH  095%=      5-min Rain = 0
KLA1 140833Z 00000KT 25/24 A3003 RMK A01 T02470238  RH  095%=      5-min Rain = 0
KLA1 140834Z 13000KT 25/24 A3003 RMK A01 T02470238  RH  095%=      5-min Rain = 0
KLA1 140835Z 13001KT 25/24 A3003 RMK A01 T02470239  RH  095%=      5-min Rain = 0
KLA1 140836Z 13000KT 25/24 A3003 RMK A01 T02470239  RH  096%=      5-min Rain = 0
KLA1 140837Z 10000KT 25/24 A3003 RMK A01 T02470240  RH  096%=      5-min Rain = 0
KLA1 140838Z 10000KT 25/24 A3003 RMK A01 T02470241  RH  097%=      5-min Rain = 0
KLA1 140839Z 05001KT 25/24 A3003 RMK A01 T02470242  RH  097%=      5-min Rain = 0
KLA1 140840Z 05001KT 25/24 A3003 RMK A01 T02470241  RH  097%=      5-min Rain = 0
KLA1 140841Z 06001KT 25/24 A3003 RMK A01 T02460241  RH  097%=      5-min Rain = 0
KLA1 140842Z 05001KT 25/24 A3003 RMK A01 T02460241  RH  097%=      5-min Rain = 0
KLA1 140843Z 05001KT 25/24 A3003 RMK A01 T02460241  RH  097%=      5-min Rain = 0
KLA1 140844Z 07001KT 25/24 A3003 RMK A01 T02460240  RH  096%=      5-min Rain = 0
KLA1 140845Z 08001KT 25/24 A3003 RMK A01 T02450238  RH  096%=      5-min Rain = 0
KLA1 140846Z 09001KT 25/24 A3003 RMK A01 T02450239  RH  096%=      5-min Rain = 0
KLA1 140847Z 10001KT 25/24 A3003 RMK A01 T02450239  RH  096%=      5-min Rain = 0
KLA1 140848Z 11001KT 25/24 A3002 RMK A01 T02450237  RH  095%=      5-min Rain = 0
KLA1 140849Z 10000KT 24/24 A3002 RMK A01 T02440235  RH  095%=      5-min Rain = 0
KLA1 140850Z 00000KT 24/23 A3002 RMK A01 T02440234  RH  094%=      5-min Rain = 0
KLA1 140851Z 00000KT 24/23 A3002 RMK A01 T02440230  RH  092%=      5-min Rain = 0
KLA1 140852Z 10000KT 24/23 A3002 RMK A01 T02440230  RH  092%=      5-min Rain = 0
KLA1 140853Z 10000KT 25/23 A3002 RMK A01 T02450229  RH  091%=      5-min Rain = 0
KLA1 140854Z 10000KT 25/23 A3002 RMK A01 T02450226  RH  090%=      5-min Rain = 0
KLA1 140855Z 00000KT 25/23 A3002 RMK A01 T02450233  RH  093%=      5-min Rain = 0
KLA1 140856Z 07000KT 25/24 A3002 RMK A01 T02460240  RH  096%=      5-min Rain = 0
KLA1 140857Z 05001KT 25/24 A3002 RMK A01 T02460239  RH  096%=      5-min Rain = 0
KLA1 140858Z 03001KT 24/23 A3002 RMK A01 T02440232  RH  093%=      5-min Rain = 0
KLA1 140859Z 02002KT 24/23 A3002 RMK A01 T02430228  RH  092%=      5-min Rain = 0
KLA1 140900Z 02001KT 24/23 A3002 RMK A01 T02420228  RH  092%=      5-min Rain = 0
KLA1 140901Z 02000KT 24/23 A3002 RMK A01 T02420228  RH  092%=      5-min Rain = 0
KLA1 140902Z 00000KT 24/23 A3002 RMK A01 T02420229  RH  092%=      5-min Rain = 0
KLA1 140903Z 12000KT 24/23 A3002 RMK A01 T02430231  RH  093%=      5-min Rain = 0
KLA1 140904Z 11000KT 24/23 A3002 RMK A01 T02430233  RH  094%=      5-min Rain = 0
KLA1 140905Z 10001KT 24/23 A3002 RMK A01 T02430234  RH  095%=      5-min Rain = 0
KLA1 140906Z 09002KT 24/23 A3002 RMK A01 T02420228  RH  092%=      5-min Rain = 0
KLA1 140907Z 07002KT 24/23 A3002 RMK A01 T02420229  RH  092%=      5-min Rain = 0
KLA1 140908Z 09002KT 24/23 A3002 RMK A01 T02420229  RH  093%=      5-min Rain = 0
KLA1 140909Z 08001KT 24/23 A3002 RMK A01 T02420229  RH  093%=      5-min Rain = 0
KLA1 140910Z 08001KT 24/23 A3002 RMK A01 T02420227  RH  092%=      5-min Rain = 0
KLA1 140911Z 08001KT 24/23 A3002 RMK A01 T02420227  RH  091%=      5-min Rain = 0
KLA1 140912Z 07001KT 24/23 A3002 RMK A01 T02420228  RH  092%=      5-min Rain = 0
KLA1 140913Z 07002KT 24/22 A3002 RMK A01 T02430223  RH  089%=      5-min Rain = 0
KLA1 140914Z 08002KT 24/22 A3002 RMK A01 T02430219  RH  086%=      5-min Rain = 0
KLA1 140915Z 08002KT 24/22 A3002 RMK A01 T02440220  RH  086%=      5-min Rain = 0
KLA1 140916Z 09003KT 25/22 A3002 RMK A01 T02450219  RH  085%=      5-min Rain = 0
KLA1 140917Z 08003KT 25/22 A3002 RMK A01 T02450218  RH  085%=      5-min Rain = 0
KLA1 140918Z 09003KT 25/22 A3002 RMK A01 T02460218  RH  085%=      5-min Rain = 0
KLA1 140919Z 08003KT 25/22 A3003 RMK A01 T02460217  RH  084%=      5-min Rain = 0
KLA1 140920Z 08003KT 25/22 A3003 RMK A01 T02460216  RH  083%=      5-min Rain = 0
KLA1 140921Z 09002KT 25/22 A3003 RMK A01 T02470215  RH  082%=      5-min Rain = 0
KLA1 140922Z 09002KT 25/21 A3003 RMK A01 T02480214  RH  082%=      5-min Rain = 0
KLA1 140923Z 08003KT 25/21 A3003 RMK A01 T02480214  RH  081%=      5-min Rain = 0
KLA1 140924Z 07002KT 25/21 A3003 RMK A01 T02490214  RH  081%=      5-min Rain = 0
KLA1 140925Z 05003KT 25/21 A3002 RMK A01 T02490214  RH  081%=      5-min Rain = 0
KLA1 140926Z 05003KT 25/21 A3002 RMK A01 T02500214  RH  081%=      5-min Rain = 0
KLA1 140927Z 05003KT 25/21 A3002 RMK A01 T02500212  RH  079%=      5-min Rain = 0
KLA1 140928Z 03003KT 25/21 A3002 RMK A01 T02510211  RH  079%=      5-min Rain = 0
KLA1 140929Z 04002KT 25/21 A3002 RMK A01 T02510212  RH  079%=      5-min Rain = 0
KLA1 140930Z 04003KT 25/22 A3002 RMK A01 T02520217  RH  081%=      5-min Rain = 0
KLA1 140931Z 03003KT 25/22 A3002 RMK A01 T02510220  RH  083%=      5-min Rain = 0
KLA1 140932Z 03003KT 25/22 A3002 RMK A01 T02500223  RH  085%=      5-min Rain = 0
KLA1 140933Z 03003KT 25/22 A3002 RMK A01 T02480222  RH  085%=      5-min Rain = 0
KLA1 140934Z 02002KT 25/22 A3002 RMK A01 T02470223  RH  086%=      5-min Rain = 0
KLA1 140935Z 02002KT 25/22 A3002 RMK A01 T02460223  RH  087%=      5-min Rain = 0
KLA1 140936Z 03001KT 25/22 A3002 RMK A01 T02450222  RH  087%=      5-min Rain = 0
KLA1 140937Z 07002KT 25/22 A3002 RMK A01 T02450218  RH  085%=      5-min Rain = 0
KLA1 140938Z 04002KT 25/21 A3002 RMK A01 T02450211  RH  081%=      5-min Rain = 0
KLA1 140939Z 04001KT 25/21 A3002 RMK A01 T02470211  RH  080%=      5-min Rain = 0
KLA1 140940Z 05001KT 25/21 A3002 RMK A01 T02480209  RH  079%=      5-min Rain = 0
KLA1 140941Z 08000KT 25/21 A3002 RMK A01 T02500213  RH  080%=      5-min Rain = 0
KLA1 140942Z 09000KT 25/21 A3002 RMK A01 T02500211  RH  079%=      5-min Rain = 0
KLA1 140943Z 09001KT 25/21 A3002 RMK A01 T02500211  RH  079%=      5-min Rain = 0
KLA1 140944Z 09001KT 25/21 A3002 RMK A01 T02500210  RH  078%=      5-min Rain = 0
KLA1 140945Z 19001KT 25/22 A3002 RMK A01 T02510220  RH  083%=      5-min Rain = 0
KLA1 140946Z 19000KT 25/22 A3002 RMK A01 T02510223  RH  085%=      5-min Rain = 0
KLA1 140947Z 17000KT 25/22 A3002 RMK A01 T02500223  RH  085%=      5-min Rain = 0
KLA1 140948Z 21001KT 25/23 A3002 RMK A01 T02490225  RH  087%=      5-min Rain = 0
KLA1 140949Z 22002KT 25/23 A3002 RMK A01 T02480227  RH  088%=      5-min Rain = 0
KLA1 140950Z 20001KT 25/23 A3002 RMK A01 T02480230  RH  090%=      5-min Rain = 0
KLA1 140951Z 20001KT 25/23 A3002 RMK A01 T02470230  RH  090%=      5-min Rain = 0
KLA1 140952Z 00000KT 25/23 A3002 RMK A01 T02460229  RH  090%=      5-min Rain = 0
KLA1 140953Z 00000KT 25/23 A3002 RMK A01 T02450228  RH  090%=      5-min Rain = 0
KLA1 140954Z 14000KT 24/23 A3002 RMK A01 T02430226  RH  090%=      5-min Rain = 0
KLA1 140955Z 12000KT 24/23 A3002 RMK A01 T02430225  RH  090%=      5-min Rain = 0
KLA1 140956Z 00000KT 24/23 A3002 RMK A01 T02420225  RH  090%=      5-min Rain = 0
KLA1 140957Z 00000KT 24/22 A3002 RMK A01 T02420224  RH  089%=      5-min Rain = 0
KLA1 140958Z 00000KT 24/22 A3002 RMK A01 T02420223  RH  090%=      5-min Rain = 0
KLA1 140959Z 00000KT 24/23 A3002 RMK A01 T02420225  RH  091%=      5-min Rain = 0
KLA1 141000Z 00000KT 24/23 A3002 RMK A01 T02420227  RH  092%=      5-min Rain = 0
KLA1 141001Z 00000KT 24/23 A3002 RMK A01 T02420228  RH  092%=      5-min Rain = 0
KLA1 141002Z 00000KT 24/23 A3002 RMK A01 T02410227  RH  091%=      5-min Rain = 0
KLA1 141003Z 00000KT 24/23 A3002 RMK A01 T02410225  RH  091%=      5-min Rain = 0
KLA1 141004Z 00000KT 24/23 A3002 RMK A01 T02410225  RH  091%=      5-min Rain = 0
KLA1 141005Z 00000KT 24/23 A3002 RMK A01 T02410229  RH  093%=      5-min Rain = 0
KLA1 141006Z 00000KT 24/23 A3002 RMK A01 T02420234  RH  095%=      5-min Rain = 0
KLA1 141007Z 00000KT 24/23 A3002 RMK A01 T02420233  RH  095%=      5-min Rain = 0
KLA1 141008Z 00000KT 24/23 A3002 RMK A01 T02420234  RH  095%=      5-min Rain = 0
KLA1 141009Z 26001KT 24/24 A3002 RMK A01 T02420235  RH  096%=      5-min Rain = 0
KLA1 141010Z 27001KT 24/24 A3002 RMK A01 T02420236  RH  097%=      5-min Rain = 0
KLA1 141011Z 27001KT 24/24 A3002 RMK A01 T02420237  RH  097%=      5-min Rain = 0
KLA1 141012Z 27001KT 24/24 A3002 RMK A01 T02420237  RH  097%=      5-min Rain = 0
KLA1 141013Z 28001KT 24/24 A3002 RMK A01 T02420237  RH  097%=      5-min Rain = 0
KLA1 141014Z 28001KT 24/24 A3002 RMK A01 T02410236  RH  097%=      5-min Rain = 0
KLA1 141015Z 28002KT 24/24 A3002 RMK A01 T02410235  RH  096%=      5-min Rain = 0
KLA1 141016Z 27002KT 24/23 A3002 RMK A01 T02410229  RH  093%=      5-min Rain = 0
KLA1 141017Z 28001KT 24/23 A3002 RMK A01 T02410227  RH  092%=      5-min Rain = 0
KLA1 141018Z 28001KT 24/23 A3002 RMK A01 T02410227  RH  092%=      5-min Rain = 0
KLA1 141019Z 26001KT 24/23 A3001 RMK A01 T02420228  RH  092%=      5-min Rain = 0
KLA1 141020Z 28001KT 24/23 A3001 RMK A01 T02420232  RH  094%=      5-min Rain = 0
KLA1 141021Z 27001KT 24/23 A3001 RMK A01 T02420233  RH  095%=      5-min Rain = 0
KLA1 141022Z 27000KT 24/23 A3001 RMK A01 T02420234  RH  095%=      5-min Rain = 0
KLA1 141023Z 00000KT 24/24 A3001 RMK A01 T02420235  RH  096%=      5-min Rain = 0
KLA1 141024Z 00000KT 24/23 A3001 RMK A01 T02410233  RH  095%=      5-min Rain = 0
KLA1 141025Z 00000KT 24/23 A3001 RMK A01 T02400232  RH  096%=      5-min Rain = 0
KLA1 141026Z 00000KT 24/23 A3001 RMK A01 T02390232  RH  096%=      5-min Rain = 0
KLA1 141027Z 10001KT 24/23 A3001 RMK A01 T02380232  RH  097%=      5-min Rain = 0
KLA1 141028Z 10001KT 24/23 A3001 RMK A01 T02370233  RH  097%=      5-min Rain = 0
KLA1 141029Z 09001KT 24/23 A3001 RMK A01 T02370232  RH  097%=      5-min Rain = 0
KLA1 141030Z 10001KT 24/23 A3001 RMK A01 T02360232  RH  098%=      5-min Rain = 0
KLA1 141031Z 10001KT 24/23 A3001 RMK A01 T02360234  RH  099%=      5-min Rain = 0
KLA1 141032Z 00000KT 24/23 A3001 RMK A01 T02360234  RH  099%=      5-min Rain = 0
KLA1 141033Z 00000KT 24/23 A3001 RMK A01 T02360233  RH  099%=      5-min Rain = 0
KLA1 141034Z 00000KT 24/23 A3001 RMK A01 T02350233  RH  099%=      5-min Rain = 0
KLA1 141035Z 00000KT 24/23 A3001 RMK A01 T02350233  RH  099%=      5-min Rain = 0
KLA1 141036Z 10000KT 24/23 A3001 RMK A01 T02350234  RH  100%=      5-min Rain = 0
KLA1 141037Z 10000KT 24/24 A3001 RMK A01 T02350235  RH  100%=      5-min Rain = 0
KLA1 141038Z 00000KT 23/23 A3001 RMK A01 T02340234  RH  100%=      5-min Rain = 0
KLA1 141039Z 00000KT 23/23 A3001 RMK A01 T02340234  RH  100%=      5-min Rain = 0
KLA1 141040Z 00000KT 23/23 A3001 RMK A01 T02340233  RH  099%=      5-min Rain = 0
KLA1 141041Z 00000KT 23/23 A3001 RMK A01 T02340232  RH  099%=      5-min Rain = 0
KLA1 141042Z 03001KT 23/23 A3001 RMK A01 T02340230  RH  097%=      5-min Rain = 0
KLA1 141043Z 02002KT 24/23 A3001 RMK A01 T02350228  RH  096%=      5-min Rain = 0
KLA1 141044Z 02002KT 24/23 A3001 RMK A01 T02350226  RH  095%=      5-min Rain = 0
KLA1 141045Z 02002KT 24/23 A3001 RMK A01 T02350225  RH  094%=      5-min Rain = 0
KLA1 141046Z 02002KT 24/22 A3001 RMK A01 T02360224  RH  093%=      5-min Rain = 0
KLA1 141047Z 02002KT 24/22 A3001 RMK A01 T02360222  RH  092%=      5-min Rain = 0
KLA1 141048Z 02002KT 24/22 A3001 RMK A01 T02360222  RH  092%=      5-min Rain = 0
KLA1 141049Z 02002KT 24/22 A3001 RMK A01 T02370222  RH  091%=      5-min Rain = 0
KLA1 141050Z 02002KT 24/22 A3001 RMK A01 T02370223  RH  092%=      5-min Rain = 0
KLA1 141051Z 02002KT 24/22 A3001 RMK A01 T02370222  RH  091%=      5-min Rain = 0
KLA1 141052Z 02002KT 24/22 A3001 RMK A01 T02370223  RH  092%=      5-min Rain = 0
KLA1 141053Z 02002KT 24/22 A3001 RMK A01 T02370224  RH  092%=      5-min Rain = 0
KLA1 141054Z 02002KT 24/23 A3001 RMK A01 T02370225  RH  093%=      5-min Rain = 0
KLA1 141055Z 02002KT 24/23 A3001 RMK A01 T02370225  RH  093%=      5-min Rain = 0
KLA1 141056Z 05001KT 24/22 A3001 RMK A01 T02370224  RH  093%=      5-min Rain = 0
KLA1 141057Z 08001KT 24/22 A3001 RMK A01 T02360224  RH  093%=      5-min Rain = 0
KLA1 141058Z 11002KT 24/23 A3001 RMK A01 T02360225  RH  094%=      5-min Rain = 0
KLA1 141059Z 12002KT 24/23 A3001 RMK A01 T02360226  RH  094%=      5-min Rain = 0
KLA1 141100Z 11001KT 24/23 A3001 RMK A01 T02350226  RH  094%=      5-min Rain = 0
KLA1 141101Z 10001KT 24/23 A3001 RMK A01 T02350225  RH  094%=      5-min Rain = 0
KLA1 141102Z 11001KT 24/23 A3002 RMK A01 T02350225  RH  094%=      5-min Rain = 0
KLA1 141103Z 11001KT 24/23 A3002 RMK A01 T02350225  RH  094%=      5-min Rain = 0
KLA1 141104Z 11000KT 24/23 A3002 RMK A01 T02350225  RH  094%=      5-min Rain = 0
KLA1 141105Z 00000KT 24/22 A3002 RMK A01 T02350224  RH  093%=      5-min Rain = 0
KLA1 141106Z 00000KT 24/23 A3002 RMK A01 T02350226  RH  094%=      5-min Rain = 0
KLA1 141107Z 00000KT 24/23 A3002 RMK A01 T02360227  RH  095%=      5-min Rain = 0
KLA1 141108Z 00000KT 24/23 A3002 RMK A01 T02360225  RH  093%=      5-min Rain = 0
KLA1 141109Z 00000KT 24/23 A3002 RMK A01 T02370227  RH  094%=      5-min Rain = 0
KLA1 141110Z 00000KT 24/23 A3002 RMK A01 T02370227  RH  094%=      5-min Rain = 0
KLA1 141111Z 13000KT 24/23 A3002 RMK A01 T02380230  RH  095%=      5-min Rain = 0
KLA1 141112Z 14000KT 24/23 A3002 RMK A01 T02380229  RH  094%=      5-min Rain = 0
KLA1 141113Z 14001KT 24/23 A3002 RMK A01 T02370225  RH  093%=      5-min Rain = 0
KLA1 141114Z 15002KT 24/23 A3002 RMK A01 T02370228  RH  094%=      5-min Rain = 0
KLA1 141115Z 13002KT 24/23 A3002 RMK A01 T02370230  RH  096%=      5-min Rain = 0
KLA1 141116Z 11002KT 24/23 A3002 RMK A01 T02380231  RH  096%=      5-min Rain = 0
KLA1 141117Z 11001KT 24/23 A3002 RMK A01 T02370225  RH  093%=      5-min Rain = 0
KLA1 141118Z 10001KT 24/22 A3002 RMK A01 T02360220  RH  090%=      5-min Rain = 0
KLA1 141119Z 08001KT 24/22 A3002 RMK A01 T02350217  RH  089%=      5-min Rain = 0
KLA1 141120Z 07002KT 24/22 A3002 RMK A01 T02350217  RH  089%=      5-min Rain = 0
KLA1 141121Z 08002KT 24/22 A3002 RMK A01 T02360216  RH  089%=      5-min Rain = 0
KLA1 141122Z 08002KT 24/22 A3002 RMK A01 T02360217  RH  089%=      5-min Rain = 0
KLA1 141123Z 07002KT 24/22 A3002 RMK A01 T02370218  RH  089%=      5-min Rain = 0
KLA1 141124Z 08002KT 24/22 A3002 RMK A01 T02370218  RH  089%=      5-min Rain = 0
KLA1 141125Z 08002KT 24/22 A3002 RMK A01 T02370218  RH  089%=      5-min Rain = 0
KLA1 141126Z 08002KT 24/22 A3002 RMK A01 T02370218  RH  089%=      5-min Rain = 0
KLA1 141127Z 09002KT 24/22 A3002 RMK A01 T02370218  RH  089%=      5-min Rain = 0
KLA1 141128Z 09002KT 24/22 A3002 RMK A01 T02360216  RH  088%=      5-min Rain = 0
KLA1 141129Z 09002KT 24/22 A3002 RMK A01 T02360216  RH  088%=      5-min Rain = 0
KLA1 141130Z 09001KT 24/22 A3002 RMK A01 T02360216  RH  088%=      5-min Rain = 0
KLA1 141131Z 09001KT 24/22 A3002 RMK A01 T02370218  RH  089%=      5-min Rain = 0
KLA1 141132Z 09001KT 24/22 A3002 RMK A01 T02370217  RH  089%=      5-min Rain = 0
KLA1 141133Z 10001KT 24/22 A3002 RMK A01 T02370215  RH  087%=      5-min Rain = 0
KLA1 141134Z 10001KT 24/21 A3002 RMK A01 T02370214  RH  087%=      5-min Rain = 0
KLA1 141135Z 10000KT 24/21 A3002 RMK A01 T02370213  RH  087%=      5-min Rain = 0
KLA1 141136Z 00000KT 24/21 A3002 RMK A01 T02370211  RH  085%=      5-min Rain = 0
KLA1 141137Z 00000KT 24/21 A3002 RMK A01 T02370212  RH  086%=      5-min Rain = 0
KLA1 141138Z 00000KT 24/22 A3002 RMK A01 T02380218  RH  089%=      5-min Rain = 0
KLA1 141139Z 33000KT 24/22 A3002 RMK A01 T02380220  RH  090%=      5-min Rain = 0
KLA1 141140Z 30001KT 24/23 A3002 RMK A01 T02390225  RH  092%=      5-min Rain = 0
KLA1 141141Z 29003KT 24/23 A3002 RMK A01 T02390229  RH  094%=      5-min Rain = 0
KLA1 141142Z 30002KT 24/23 A3002 RMK A01 T02390231  RH  095%=      5-min Rain = 0
KLA1 141143Z 31002KT 24/23 A3002 RMK A01 T02390232  RH  096%=      5-min Rain = 0
KLA1 141144Z 30001KT 24/23 A3002 RMK A01 T02380230  RH  095%=      5-min Rain = 0
KLA1 141145Z 00000KT 24/22 A3002 RMK A01 T02380224  RH  092%=      5-min Rain = 0
KLA1 141146Z 30000KT 24/22 A3002 RMK A01 T02370223  RH  091%=      5-min Rain = 0
KLA1 141147Z 00000KT 24/22 A3002 RMK A01 T02380223  RH  091%=      5-min Rain = 0
KLA1 141148Z 00000KT 24/22 A3002 RMK A01 T02380223  RH  091%=      5-min Rain = 0
KLA1 141149Z 00000KT 24/22 A3003 RMK A01 T02380224  RH  092%=      5-min Rain = 0
KLA1 141150Z 29001KT 24/22 A3003 RMK A01 T02390224  RH  092%=      5-min Rain = 0
KLA1 141151Z 30001KT 24/22 A3003 RMK A01 T02380218  RH  088%=      5-min Rain = 0
KLA1 141152Z 30001KT 24/22 A3003 RMK A01 T02380218  RH  088%=      5-min Rain = 0
KLA1 141153Z 30001KT 24/22 A3003 RMK A01 T02380220  RH  089%=      5-min Rain = 0
KLA1 141154Z 30001KT 24/22 A3003 RMK A01 T02380220  RH  090%=      5-min Rain = 0
KLA1 141155Z 29000KT 24/22 A3003 RMK A01 T02380222  RH  091%=      5-min Rain = 0
KLA1 141156Z 00000KT 24/22 A3003 RMK A01 T02370224  RH  092%=      5-min Rain = 0
KLA1 141157Z 00000KT 24/23 A3003 RMK A01 T02370225  RH  093%=      5-min Rain = 0
KLA1 141158Z 00000KT 24/22 A3003 RMK A01 T02360223  RH  092%=      5-min Rain = 0
KLA1 141159Z 00000KT 24/22 A3003 RMK A01 T02360222  RH  092%=      5-min Rain = 0
KLA1 141200Z 00000KT 24/22 A3003 RMK A01 T02350222  RH  092%=      5-min Rain = 0
KLA1 141201Z 00000KT 24/22 A3003 RMK A01 T02350223  RH  093%=      5-min Rain = 0
KLA1 141202Z 00000KT 24/22 A3003 RMK A01 T02350223  RH  093%=      5-min Rain = 0
KLA1 141203Z 00000KT 23/22 A3003 RMK A01 T02340219  RH  092%=      5-min Rain = 0
KLA1 141204Z 00000KT 23/22 A3003 RMK A01 T02330219  RH  092%=      5-min Rain = 0
KLA1 141205Z 00000KT 23/22 A3003 RMK A01 T02330222  RH  093%=      5-min Rain = 0
KLA1 141206Z 00000KT 23/22 A3003 RMK A01 T02330219  RH  092%=      5-min Rain = 0
KLA1 141207Z 00000KT 23/22 A3003 RMK A01 T02330217  RH  091%=      5-min Rain = 0
KLA1 141208Z 00000KT 23/22 A3003 RMK A01 T02330218  RH  091%=      5-min Rain = 0
KLA1 141209Z 00000KT 23/22 A3003 RMK A01 T02320219  RH  092%=      5-min Rain = 0
KLA1 141210Z 00000KT 23/22 A3003 RMK A01 T02320216  RH  090%=      5-min Rain = 0
KLA1 141211Z 00000KT 23/22 A3003 RMK A01 T02320215  RH  090%=      5-min Rain = 0
KLA1 141212Z 00000KT 23/22 A3003 RMK A01 T02320221  RH  093%=      5-min Rain = 0
KLA1 141213Z 00000KT 23/22 A3003 RMK A01 T02330218  RH  091%=      5-min Rain = 0
KLA1 141214Z 00000KT 23/22 A3003 RMK A01 T02320215  RH  090%=      5-min Rain = 0
KLA1 141215Z 00000KT 23/21 A3004 RMK A01 T02320214  RH  090%=      5-min Rain = 0
KLA1 141216Z 20000KT 23/21 A3004 RMK A01 T02320213  RH  089%=      5-min Rain = 0
KLA1 141217Z 00000KT 23/22 A3004 RMK A01 T02330218  RH  091%=      5-min Rain = 0
KLA1 141218Z 22001KT 23/22 A3004 RMK A01 T02340222  RH  093%=      5-min Rain = 0
KLA1 141219Z 22001KT 24/23 A3004 RMK A01 T02350226  RH  095%=      5-min Rain = 0
KLA1 141220Z 23001KT 24/23 A3004 RMK A01 T02360228  RH  096%=      5-min Rain = 0
KLA1 141221Z 25001KT 24/23 A3004 RMK A01 T02360228  RH  095%=      5-min Rain = 0
KLA1 141222Z 26001KT 24/23 A3004 RMK A01 T02360228  RH  095%=      5-min Rain = 0
KLA1 141223Z 26001KT 24/23 A3004 RMK A01 T02360230  RH  097%=      5-min Rain = 0
KLA1 141224Z 27002KT 24/23 A3004 RMK A01 T02360232  RH  098%=      5-min Rain = 0
KLA1 141225Z 28002KT 24/23 A3004 RMK A01 T02360233  RH  098%=      5-min Rain = 0
KLA1 141226Z 28002KT 24/23 A3004 RMK A01 T02370234  RH  099%=      5-min Rain = 0
KLA1 141227Z 28001KT 24/23 A3004 RMK A01 T02370234  RH  099%=      5-min Rain = 0
KLA1 141228Z 28001KT 24/23 A3004 RMK A01 T02360234  RH  098%=      5-min Rain = 0
KLA1 141229Z 28000KT 24/23 A3004 RMK A01 T02360233  RH  098%=      5-min Rain = 0
KLA1 141230Z 27000KT 24/23 A3004 RMK A01 T02360232  RH  098%=      5-min Rain = 0
KLA1 141231Z 00000KT 24/23 A3004 RMK A01 T02360232  RH  098%=      5-min Rain = 0
KLA1 141232Z 00000KT 24/23 A3004 RMK A01 T02360233  RH  098%=      5-min Rain = 0
KLA1 141233Z 00000KT 24/23 A3004 RMK A01 T02350232  RH  098%=      5-min Rain = 0
KLA1 141234Z 00000KT 23/23 A3004 RMK A01 T02340232  RH  099%=      5-min Rain = 0
KLA1 141235Z 00000KT 23/23 A3004 RMK A01 T02340232  RH  099%=      5-min Rain = 0
KLA1 141236Z 00000KT 23/23 A3004 RMK A01 T02330232  RH  099%=      5-min Rain = 0
KLA1 141237Z 00000KT 23/23 A3004 RMK A01 T02330231  RH  099%=      5-min Rain = 0
KLA1 141238Z 00000KT 23/23 A3004 RMK A01 T02320230  RH  099%=      5-min Rain = 0
KLA1 141239Z 00000KT 23/23 A3004 RMK A01 T02320230  RH  099%=      5-min Rain = 0
KLA1 141240Z 32000KT 23/23 A3004 RMK A01 T02320230  RH  099%=      5-min Rain = 0
KLA1 141241Z 29001KT 23/23 A3004 RMK A01 T02320232  RH  100%=      5-min Rain = 0
KLA1 141242Z 29001KT 23/23 A3004 RMK A01 T02330233  RH  100%=      5-min Rain = 0
KLA1 141243Z 29001KT 23/23 A3004 RMK A01 T02340234  RH  100%=      5-min Rain = 0
KLA1 141244Z 29001KT 23/23 A3004 RMK A01 T02340234  RH  100%=      5-min Rain = 0
KLA1 141245Z 29001KT 23/23 A3004 RMK A01 T02340234  RH  100%=      5-min Rain = 0
KLA1 141246Z 29001KT 24/24 A3004 RMK A01 T02350235  RH  100%=      5-min Rain = 0
KLA1 141247Z 29001KT 24/24 A3004 RMK A01 T02350236  RH  100%=      5-min Rain = 0
KLA1 141248Z 29000KT 24/24 A3004 RMK A01 T02350235  RH  100%=      5-min Rain = 0
KLA1 141249Z 00000KT 24/24 A3004 RMK A01 T02360236  RH  100%=      5-min Rain = 0
KLA1 141250Z 00000KT 24/24 A3004 RMK A01 T02350235  RH  100%=      5-min Rain = 0
KLA1 141251Z 00000KT 24/24 A3004 RMK A01 T02350235  RH  100%=      5-min Rain = 0
KLA1 141252Z 00000KT 24/24 A3005 RMK A01 T02350235  RH  100%=      5-min Rain = 0
KLA1 141253Z 00000KT 24/23 A3005 RMK A01 T02350234  RH  100%=      5-min Rain = 0
KLA1 141254Z 00000KT 24/23 A3005 RMK A01 T02350234  RH  099%=      5-min Rain = 0
KLA1 141255Z 00000KT 23/23 A3005 RMK A01 T02340231  RH  098%=      5-min Rain = 0
KLA1 141256Z 03000KT 23/23 A3005 RMK A01 T02340230  RH  098%=      5-min Rain = 0
KLA1 141257Z 03001KT 23/23 A3005 RMK A01 T02340228  RH  097%=      5-min Rain = 0
KLA1 141258Z 03001KT 23/23 A3005 RMK A01 T02340228  RH  096%=      5-min Rain = 0
KLA1 141259Z 03002KT 23/23 A3005 RMK A01 T02340227  RH  096%=      5-min Rain = 0
KLA1 141300Z 03002KT 24/23 A3006 RMK A01 T02350227  RH  096%=      5-min Rain = 0
KLA1 141301Z 02002KT 24/23 A3006 RMK A01 T02350226  RH  094%=      5-min Rain = 0
KLA1 141302Z 01002KT 24/22 A3006 RMK A01 T02360223  RH  093%=      5-min Rain = 0
KLA1 141303Z 00001KT 24/22 A3006 RMK A01 T02360221  RH  091%=      5-min Rain = 0
KLA1 141304Z 00001KT 24/22 A3006 RMK A01 T02370220  RH  090%=      5-min Rain = 0
KLA1 141305Z 35000KT 24/23 A3006 RMK A01 T02390228  RH  093%=      5-min Rain = 0
KLA1 141306Z 00000KT 24/23 A3006 RMK A01 T02410232  RH  095%=      5-min Rain = 0
KLA1 141307Z 00000KT 24/23 A3006 RMK A01 T02410232  RH  095%=      5-min Rain = 0
KLA1 141308Z 00000KT 24/23 A3006 RMK A01 T02420232  RH  094%=      5-min Rain = 0
KLA1 141309Z 00000KT 24/23 A3006 RMK A01 T02420233  RH  095%=      5-min Rain = 0
KLA1 141310Z 00000KT 24/24 A3006 RMK A01 T02430235  RH  096%=      5-min Rain = 0
KLA1 141311Z 00000KT 24/24 A3006 RMK A01 T02430236  RH  096%=      5-min Rain = 0
KLA1 141312Z 00000KT 24/24 A3006 RMK A01 T02440237  RH  096%=      5-min Rain = 0
KLA1 141313Z 00000KT 24/24 A3006 RMK A01 T02440238  RH  096%=      5-min Rain = 0
KLA1 141314Z 00000KT 24/24 A3006 RMK A01 T02440237  RH  096%=      5-min Rain = 0
KLA1 141315Z 00000KT 24/24 A3006 RMK A01 T02440236  RH  095%=      5-min Rain = 0
KLA1 141316Z 23000KT 24/24 A3006 RMK A01 T02440235  RH  094%=      5-min Rain = 0
KLA1 141317Z 24001KT 24/24 A3006 RMK A01 T02440235  RH  094%=      5-min Rain = 0
KLA1 141318Z 25002KT 24/24 A3006 RMK A01 T02440235  RH  094%=      5-min Rain = 0
KLA1 141319Z 26002KT 24/23 A3006 RMK A01 T02430234  RH  094%=      5-min Rain = 0
KLA1 141320Z 27002KT 24/23 A3006 RMK A01 T02430234  RH  095%=      5-min Rain = 0
KLA1 141321Z 28001KT 24/24 A3006 RMK A01 T02430235  RH  095%=      5-min Rain = 0
KLA1 141322Z 27001KT 24/24 A3006 RMK A01 T02430235  RH  095%=      5-min Rain = 0
KLA1 141323Z 27001KT 24/24 A3006 RMK A01 T02440237  RH  096%=      5-min Rain = 0
KLA1 141324Z 27003KT 24/23 A3006 RMK A01 T02440233  RH  093%=      5-min Rain = 0
KLA1 141325Z 28002KT 25/23 A3006 RMK A01 T02450233  RH  093%=      5-min Rain = 0
KLA1 141326Z 28002KT 24/23 A3006 RMK A01 T02440232  RH  093%=      5-min Rain = 0
KLA1 141327Z 29002KT 25/23 A3006 RMK A01 T02450232  RH  092%=      5-min Rain = 0
KLA1 141328Z 29002KT 25/23 A3006 RMK A01 T02460233  RH  092%=      5-min Rain = 0
KLA1 141329Z 29003KT 25/23 A3006 RMK A01 T02470232  RH  091%=      5-min Rain = 0
KLA1 141330Z 28002KT 25/23 A3006 RMK A01 T02490233  RH  091%=      5-min Rain = 0
KLA1 141331Z 28003KT 25/23 A3006 RMK A01 T02490232  RH  090%=      5-min Rain = 0
KLA1 141332Z 27003KT 25/23 A3006 RMK A01 T02500228  RH  087%=      5-min Rain = 0
KLA1 141333Z 27003KT 25/23 A3006 RMK A01 T02500225  RH  086%=      5-min Rain = 0
KLA1 141334Z 27003KT 25/23 A3006 RMK A01 T02500226  RH  087%=      5-min Rain = 0
KLA1 141335Z 27002KT 25/23 A3006 RMK A01 T02500227  RH  087%=      5-min Rain = 0
KLA1 141336Z 28002KT 25/23 A3006 RMK A01 T02500227  RH  087%=      5-min Rain = 0
KLA1 141337Z 28002KT 25/23 A3006 RMK A01 T02490229  RH  089%=      5-min Rain = 0
KLA1 141338Z 28002KT 25/23 A3006 RMK A01 T02500229  RH  088%=      5-min Rain = 0
KLA1 141339Z 28002KT 25/23 A3006 RMK A01 T02500228  RH  088%=      5-min Rain = 0
KLA1 141340Z 29002KT 25/23 A3006 RMK A01 T02500228  RH  087%=      5-min Rain = 0
KLA1 141341Z 29002KT 25/23 A3006 RMK A01 T02500227  RH  087%=      5-min Rain = 0
KLA1 141342Z 28002KT 25/23 A3006 RMK A01 T02500227  RH  087%=      5-min Rain = 0
KLA1 141343Z 29002KT 25/23 A3006 RMK A01 T02500227  RH  087%=      5-min Rain = 0
KLA1 141344Z 29002KT 25/23 A3006 RMK A01 T02500228  RH  088%=      5-min Rain = 0
KLA1 141345Z 29002KT 25/23 A3006 RMK A01 T02490226  RH  087%=      5-min Rain = 0
KLA1 141346Z 29002KT 25/23 A3006 RMK A01 T02500227  RH  087%=      5-min Rain = 0
KLA1 141347Z 27002KT 25/23 A3006 RMK A01 T02500228  RH  087%=      5-min Rain = 0
KLA1 141348Z 28002KT 25/23 A3006 RMK A01 T02510229  RH  088%=      5-min Rain = 0
KLA1 141349Z 29002KT 25/23 A3006 RMK A01 T02520229  RH  087%=      5-min Rain = 0
KLA1 141350Z 30002KT 25/23 A3006 RMK A01 T02520228  RH  086%=      5-min Rain = 0
KLA1 141351Z 31001KT 25/23 A3006 RMK A01 T02530227  RH  086%=      5-min Rain = 0
KLA1 141352Z 31001KT 25/23 A3006 RMK A01 T02530225  RH  085%=      5-min Rain = 0
KLA1 141353Z 31001KT 25/22 A3006 RMK A01 T02530222  RH  083%=      5-min Rain = 0
KLA1 141354Z 31000KT 25/22 A3006 RMK A01 T02530221  RH  082%=      5-min Rain = 0
KLA1 141355Z 00000KT 25/22 A3006 RMK A01 T02530222  RH  083%=      5-min Rain = 0
KLA1 141356Z 00000KT 25/22 A3006 RMK A01 T02540222  RH  082%=      5-min Rain = 0
KLA1 141357Z 00000KT 26/22 A3006 RMK A01 T02550224  RH  083%=      5-min Rain = 0
KLA1 141358Z 00000KT 26/22 A3006 RMK A01 T02560224  RH  082%=      5-min Rain = 0
KLA1 141359Z 00000KT 26/22 A3006 RMK A01 T02570222  RH  081%=      5-min Rain = 0
KLA1 141400Z 00000KT 26/22 A3006 RMK A01 T02580222  RH  081%=      5-min Rain = 0
KLA1 141401Z 00000KT 26/22 A3006 RMK A01 T02600224  RH  081%=      5-min Rain = 0
KLA1 141402Z 00000KT 26/22 A3006 RMK A01 T02600222  RH  079%=      5-min Rain = 0
KLA1 141403Z 00000KT 26/22 A3006 RMK A01 T02610221  RH  079%=      5-min Rain = 0
KLA1 141404Z 00000KT 26/22 A3006 RMK A01 T02610221  RH  079%=      5-min Rain = 0
KLA1 141405Z 00000KT 26/22 A3006 RMK A01 T02620222  RH  079%=      5-min Rain = 0
KLA1 141406Z 00000KT 26/22 A3006 RMK A01 T02630223  RH  079%=      5-min Rain = 0
KLA1 141407Z 24000KT 26/22 A3007 RMK A01 T02630221  RH  078%=      5-min Rain = 0
KLA1 141408Z 00000KT 26/22 A3006 RMK A01 T02640222  RH  078%=      5-min Rain = 0
KLA1 141409Z 27000KT 26/22 A3006 RMK A01 T02640222  RH  078%=      5-min Rain = 0
KLA1 141410Z 26001KT 27/22 A3006 RMK A01 T02650223  RH  078%=      5-min Rain = 0
KLA1 141411Z 26001KT 27/22 A3006 RMK A01 T02650222  RH  077%=      5-min Rain = 0
KLA1 141412Z 27001KT 27/22 A3006 RMK A01 T02650223  RH  077%=      5-min Rain = 0
KLA1 141413Z 26001KT 26/22 A3006 RMK A01 T02640224  RH  079%=      5-min Rain = 0
KLA1 141414Z 28001KT 27/22 A3006 RMK A01 T02650224  RH  079%=      5-min Rain = 0
KLA1 141415Z 27002KT 26/23 A3007 RMK A01 T02640225  RH  079%=      5-min Rain = 0
KLA1 141416Z 26002KT 26/22 A3007 RMK A01 T02640223  RH  078%=      5-min Rain = 0
KLA1 141417Z 27001KT 26/22 A3007 RMK A01 T02640223  RH  078%=      5-min Rain = 0
KLA1 141418Z 27001KT 26/22 A3007 RMK A01 T02640222  RH  078%=      5-min Rain = 0
KLA1 141419Z 30001KT 27/22 A3007 RMK A01 T02650224  RH  078%=      5-min Rain = 0
KLA1 141420Z 30002KT 27/22 A3007 RMK A01 T02650224  RH  078%=      5-min Rain = 0
KLA1 141421Z 29001KT 27/23 A3007 RMK A01 T02670226  RH  078%=      5-min Rain = 0
KLA1 141422Z 30001KT 27/22 A3007 RMK A01 T02680221  RH  075%=      5-min Rain = 0
KLA1 141423Z 31001KT 27/22 A3007 RMK A01 T02690223  RH  076%=      5-min Rain = 0
KLA1 141424Z 33001KT 27/22 A3007 RMK A01 T02710224  RH  076%=      5-min Rain = 0
KLA1 141425Z 30000KT 27/22 A3007 RMK A01 T02720220  RH  073%=      5-min Rain = 0
KLA1 141426Z 00000KT 27/22 A3007 RMK A01 T02740222  RH  074%=      5-min Rain = 0
KLA1 141427Z 00000KT 28/22 A3007 RMK A01 T02760221  RH  072%=      5-min Rain = 0
KLA1 141428Z 00000KT 28/22 A3007 RMK A01 T02780223  RH  072%=      5-min Rain = 0
KLA1 141429Z 31000KT 28/22 A3007 RMK A01 T02790222  RH  071%=      5-min Rain = 0
KLA1 141430Z 00000KT 28/23 A3007 RMK A01 T02800226  RH  073%=      5-min Rain = 0
KLA1 141431Z 00000KT 28/23 A3007 RMK A01 T02810225  RH  072%=      5-min Rain = 0
KLA1 141432Z 27000KT 28/22 A3007 RMK A01 T02810224  RH  071%=      5-min Rain = 0
KLA1 141433Z 00000KT 28/22 A3007 RMK A01 T02820222  RH  070%=      5-min Rain = 0.01
KLA1 141434Z 00000KT 28/22 A3007 RMK A01 T02820222  RH  070%=      5-min Rain = 0
KLA1 141435Z 09000KT 29/22 A3007 RMK A01 T02850222  RH  069%=      5-min Rain = 0
KLA1 141436Z 10001KT 29/22 A3007 RMK A01 T02870221  RH  067%=      5-min Rain = 0
KLA1 141437Z 08000KT 29/22 A3007 RMK A01 T02880217  RH  065%=      5-min Rain = 0
KLA1 141438Z 00000KT 29/22 A3007 RMK A01 T02880217  RH  065%=      5-min Rain = 0
KLA1 141439Z 10000KT 29/22 A3007 RMK A01 T02880219  RH  066%=      5-min Rain = 0
KLA1 141440Z 14001KT 29/22 A3007 RMK A01 T02880220  RH  067%=      5-min Rain = 0
KLA1 141441Z 13002KT 29/22 A3007 RMK A01 T02890219  RH  066%=      5-min Rain = 0
KLA1 141442Z 12002KT 29/22 A3008 RMK A01 T02900215  RH  064%=      5-min Rain = 0
KLA1 141443Z 12000KT 29/21 A3008 RMK A01 T02910214  RH  063%=      5-min Rain = 0
KLA1 141444Z 00000KT 29/22 A3008 RMK A01 T02910215  RH  063%=      5-min Rain = 0
KLA1 141445Z 08000KT 29/22 A3008 RMK A01 T02930221  RH  065%=      5-min Rain = 0
KLA1 141446Z 16002KT 30/22 A3008 RMK A01 T02950220  RH  064%=      5-min Rain = 0
KLA1 141447Z 17002KT 30/22 A3008 RMK A01 T02960216  RH  062%=      5-min Rain = 0
KLA1 141448Z 17002KT 30/22 A3008 RMK A01 T02950215  RH  062%=      5-min Rain = 0
KLA1 141449Z 11001KT 29/22 A3008 RMK A01 T02940218  RH  064%=      5-min Rain = 0
KLA1 141450Z 09001KT 29/22 A3008 RMK A01 T02940216  RH  063%=      5-min Rain = 0
KLA1 141451Z 15000KT 29/22 A3008 RMK A01 T02940215  RH  062%=      5-min Rain = 0
KLA1 141452Z 11001KT 30/22 A3008 RMK A01 T02960220  RH  064%=      5-min Rain = 0
KLA1 141453Z 12000KT 30/22 A3008 RMK A01 T02970216  RH  062%=      5-min Rain = 0
KLA1 141454Z 11002KT 30/22 A3008 RMK A01 T02980216  RH  062%=      5-min Rain = 0
KLA1 141455Z 13002KT 30/22 A3008 RMK A01 T02990217  RH  061%=      5-min Rain = 0
KLA1 141456Z 13003KT 30/22 A3008 RMK A01 T02990217  RH  061%=      5-min Rain = 0
KLA1 141457Z 09002KT 30/22 A3008 RMK A01 T02990216  RH  061%=      5-min Rain = 0
KLA1 141458Z 13001KT 30/22 A3008 RMK A01 T02990217  RH  062%=      5-min Rain = 0
KLA1 141459Z 15002KT 30/22 A3008 RMK A01 T02990217  RH  061%=      5-min Rain = 0
KLA1 141500Z 14002KT 30/22 A3008 RMK A01 T02990216  RH  061%=      5-min Rain = 0
KLA1 141501Z 09002KT 30/22 A3008 RMK A01 T03000219  RH  062%=      5-min Rain = 0
KLA1 141502Z 09001KT 30/22 A3008 RMK A01 T03000218  RH  061%=      5-min Rain = 0
KLA1 141503Z 09001KT 30/22 A3008 RMK A01 T03010216  RH  060%=      5-min Rain = 0
KLA1 141504Z 10002KT 30/22 A3008 RMK A01 T03020219  RH  061%=      5-min Rain = 0
KLA1 141505Z 08003KT 30/22 A3008 RMK A01 T03020218  RH  061%=      5-min Rain = 0
KLA1 141506Z 07002KT 30/22 A3008 RMK A01 T03020217  RH  060%=      5-min Rain = 0
KLA1 141507Z 08000KT 30/22 A3008 RMK A01 T03010217  RH  061%=      5-min Rain = 0
KLA1 141508Z 01000KT 30/22 A3008 RMK A01 T03010215  RH  060%=      5-min Rain = 0
KLA1 141509Z 00000KT 30/22 A3008 RMK A01 T03010217  RH  061%=      5-min Rain = 0
KLA1 141510Z 13000KT 30/22 A3008 RMK A01 T03020219  RH  061%=      5-min Rain = 0
KLA1 141511Z 17002KT 30/22 A3008 RMK A01 T03040219  RH  061%=      5-min Rain = 0
KLA1 141512Z 16001KT 30/22 A3008 RMK A01 T03030218  RH  060%=      5-min Rain = 0
KLA1 141513Z 12002KT 30/22 A3008 RMK A01 T03020219  RH  061%=      5-min Rain = 0
KLA1 141514Z 08002KT 30/22 A3008 RMK A01 T03030217  RH  060%=      5-min Rain = 0
KLA1 141515Z 09000KT 30/22 A3008 RMK A01 T03030219  RH  061%=      5-min Rain = 0
KLA1 141516Z 14002KT 30/22 A3008 RMK A01 T03040219  RH  061%=      5-min Rain = 0
KLA1 141517Z 13005KT 31/22 A3008 RMK A01 T03050220  RH  060%=      5-min Rain = 0
KLA1 141518Z 12003KT 31/22 A3008 RMK A01 T03050217  RH  059%=      5-min Rain = 0
KLA1 141519Z 16002KT 31/22 A3008 RMK A01 T03050218  RH  059%=      5-min Rain = 0
KLA1 141520Z 19002KT 31/21 A3008 RMK A01 T03050214  RH  058%=      5-min Rain = 0
KLA1 141521Z 21001KT 30/22 A3008 RMK A01 T03040217  RH  060%=      5-min Rain = 0
KLA1 141522Z 15000KT 30/22 A3008 RMK A01 T03020218  RH  061%=      5-min Rain = 0
KLA1 141523Z 13001KT 30/22 A3008 RMK A01 T03030221  RH  061%=      5-min Rain = 0
KLA1 141524Z 11003KT 31/22 A3008 RMK A01 T03060219  RH  060%=      5-min Rain = 0
KLA1 141525Z 08001KT 31/22 A3008 RMK A01 T03060218  RH  059%=      5-min Rain = 0
KLA1 141526Z 04002KT 31/22 A3008 RMK A01 T03060218  RH  059%=      5-min Rain = 0
KLA1 141527Z 06002KT 31/22 A3008 RMK A01 T03070217  RH  059%=      5-min Rain = 0
KLA1 141528Z 07004KT 31/22 A3008 RMK A01 T03070217  RH  059%=      5-min Rain = 0
KLA1 141529Z 08004KT 31/22 A3008 RMK A01 T03060219  RH  059%=      5-min Rain = 0
KLA1 141530Z 10004KT 31/22 A3008 RMK A01 T03060218  RH  059%=      5-min Rain = 0
KLA1 141531Z 11003KT 31/22 A3009 RMK A01 T03050218  RH  060%=      5-min Rain = 0
KLA1 141532Z 14003KT 30/22 A3009 RMK A01 T03040218  RH  060%=      5-min Rain = 0
KLA1 141533Z 09003KT 30/22 A3009 RMK A01 T03040220  RH  061%=      5-min Rain = 0
KLA1 141534Z 05003KT 30/22 A3009 RMK A01 T03040220  RH  061%=      5-min Rain = 0
KLA1 141535Z 04002KT 31/22 A3009 RMK A01 T03050218  RH  060%=      5-min Rain = 0
KLA1 141536Z 01001KT 30/22 A3009 RMK A01 T03040220  RH  061%=      5-min Rain = 0
KLA1 141537Z 33000KT 30/22 A3009 RMK A01 T03040219  RH  061%=      5-min Rain = 0
KLA1 141538Z 00000KT 30/22 A3009 RMK A01 T03040217  RH  060%=      5-min Rain = 0
KLA1 141539Z 20001KT 30/22 A3009 RMK A01 T03040217  RH  060%=      5-min Rain = 0
KLA1 141540Z 20001KT 30/22 A3009 RMK A01 T03040220  RH  061%=      5-min Rain = 0
KLA1 141541Z 15003KT 30/22 A3009 RMK A01 T03040220  RH  061%=      5-min Rain = 0
KLA1 141542Z 13004KT 30/22 A3009 RMK A01 T03040218  RH  060%=      5-min Rain = 0
KLA1 141543Z 14003KT 30/22 A3009 RMK A01 T03040217  RH  060%=      5-min Rain = 0
KLA1 141544Z 17002KT 30/22 A3009 RMK A01 T03030216  RH  059%=      5-min Rain = 0
KLA1 141545Z 12002KT 30/22 A3009 RMK A01 T03030218  RH  060%=      5-min Rain = 0
KLA1 141546Z 07002KT 30/22 A3009 RMK A01 T03030218  RH  060%=      5-min Rain = 0
KLA1 141547Z 08002KT 30/22 A3009 RMK A01 T03040216  RH  059%=      5-min Rain = 0
KLA1 141548Z 07001KT 30/21 A3009 RMK A01 T03040214  RH  059%=      5-min Rain = 0
KLA1 141549Z 10001KT 31/22 A3009 RMK A01 T03050217  RH  059%=      5-min Rain = 0
KLA1 141550Z 09001KT 31/22 A3009 RMK A01 T03070217  RH  059%=      5-min Rain = 0
KLA1 141551Z 09001KT 31/22 A3009 RMK A01 T03090215  RH  057%=      5-min Rain = 0
KLA1 141552Z 11001KT 31/22 A3009 RMK A01 T03110216  RH  057%=      5-min Rain = 0
KLA1 141553Z 06000KT 31/22 A3009 RMK A01 T03130215  RH  056%=      5-min Rain = 0
KLA1 141554Z 15000KT 32/22 A3009 RMK A01 T03150218  RH  057%=      5-min Rain = 0
KLA1 141555Z 20000KT 32/22 A3009 RMK A01 T03160219  RH  056%=      5-min Rain = 0
KLA1 141556Z 30000KT 32/22 A3009 RMK A01 T03170220  RH  056%=      5-min Rain = 0
KLA1 141557Z 36001KT 32/22 A3009 RMK A01 T03180219  RH  056%=      5-min Rain = 0
KLA1 141558Z 14001KT 32/22 A3009 RMK A01 T03180218  RH  056%=      5-min Rain = 0
KLA1 141559Z 12003KT 32/22 A3009 RMK A01 T03190217  RH  055%=      5-min Rain = 0
KLA1 141600Z 11002KT 32/22 A3009 RMK A01 T03190218  RH  055%=      5-min Rain = 0
KLA1 141601Z 13003KT 32/22 A3009 RMK A01 T03190218  RH  055%=      5-min Rain = 0
KLA1 141602Z 16004KT 32/22 A3009 RMK A01 T03180216  RH  055%=      5-min Rain = 0
KLA1 141603Z 15003KT 32/22 A3009 RMK A01 T03170219  RH  056%=      5-min Rain = 0
KLA1 141604Z 15002KT 32/22 A3009 RMK A01 T03170217  RH  055%=      5-min Rain = 0
KLA1 141605Z 20001KT 32/22 A3009 RMK A01 T03170217  RH  056%=      5-min Rain = 0
KLA1 141606Z 08003KT 32/22 A3009 RMK A01 T03190221  RH  056%=      5-min Rain = 0
KLA1 141607Z 10003KT 32/21 A3009 RMK A01 T03200214  RH  054%=      5-min Rain = 0
KLA1 141608Z 12001KT 32/21 A3009 RMK A01 T03190211  RH  053%=      5-min Rain = 0
KLA1 141609Z 13001KT 32/21 A3009 RMK A01 T03190214  RH  054%=      5-min Rain = 0
KLA1 141610Z 16002KT 32/22 A3009 RMK A01 T03190215  RH  054%=      5-min Rain = 0
KLA1 141611Z 18001KT 32/22 A3009 RMK A01 T03190217  RH  055%=      5-min Rain = 0
KLA1 141612Z 19001KT 32/22 A3009 RMK A01 T03190216  RH  055%=      5-min Rain = 0
KLA1 141613Z 15001KT 32/22 A3009 RMK A01 T03200219  RH  055%=      5-min Rain = 0
KLA1 141614Z 18002KT 32/22 A3009 RMK A01 T03200218  RH  055%=      5-min Rain = 0
KLA1 141615Z 16003KT 32/22 A3009 RMK A01 T03220218  RH  054%=      5-min Rain = 0
KLA1 141616Z 19002KT 32/22 A3009 RMK A01 T03220216  RH  054%=      5-min Rain = 0
KLA1 141617Z 21003KT 32/22 A3009 RMK A01 T03220217  RH  054%=      5-min Rain = 0
KLA1 141618Z 25001KT 32/22 A3009 RMK A01 T03220219  RH  054%=      5-min Rain = 0
KLA1 141619Z 14002KT 32/22 A3009 RMK A01 T03220217  RH  054%=      5-min Rain = 0
KLA1 141620Z 14004KT 32/22 A3009 RMK A01 T03220218  RH  054%=      5-min Rain = 0
KLA1 141621Z 13005KT 32/22 A3009 RMK A01 T03220218  RH  054%=      5-min Rain = 0
KLA1 141622Z 12003KT 32/22 A3009 RMK A01 T03210215  RH  053%=      5-min Rain = 0
KLA1 141623Z 13004KT 32/22 A3009 RMK A01 T03190215  RH  054%=      5-min Rain = 0
KLA1 141624Z 13002KT 32/21 A3009 RMK A01 T03180212  RH  054%=      5-min Rain = 0
KLA1 141625Z 14001KT 32/21 A3009 RMK A01 T03170213  RH  054%=      5-min Rain = 0
KLA1 141626Z 20001KT 32/21 A3009 RMK A01 T03170212  RH  054%=      5-min Rain = 0
KLA1 141627Z 19002KT 32/21 A3009 RMK A01 T03180212  RH  053%=      5-min Rain = 0
KLA1 141628Z 21002KT 32/21 A3009 RMK A01 T03190212  RH  053%=      5-min Rain = 0
KLA1 141629Z 15002KT 32/21 A3009 RMK A01 T03190211  RH  053%=      5-min Rain = 0
KLA1 141630Z 16001KT 32/21 A3009 RMK A01 T03200209  RH  052%=      5-min Rain = 0
KLA1 141631Z 17003KT 32/21 A3009 RMK A01 T03230212  RH  052%=      5-min Rain = 0
KLA1 141632Z 19004KT 32/21 A3009 RMK A01 T03240212  RH  052%=      5-min Rain = 0
KLA1 141633Z 20003KT 32/21 A3009 RMK A01 T03230213  RH  052%=      5-min Rain = 0
KLA1 141634Z 19002KT 32/21 A3009 RMK A01 T03220211  RH  052%=      5-min Rain = 0
KLA1 141635Z 16005KT 32/21 A3009 RMK A01 T03230214  RH  053%=      5-min Rain = 0
KLA1 141636Z 16004KT 32/21 A3009 RMK A01 T03240212  RH  052%=      5-min Rain = 0
KLA1 141637Z 16005KT 32/21 A3009 RMK A01 T03240211  RH  051%=      5-min Rain = 0
KLA1 141638Z 15003KT 33/21 A3009 RMK A01 T03250211  RH  051%=      5-min Rain = 0
KLA1 141639Z 18000KT 33/21 A3009 RMK A01 T03250212  RH  051%=      5-min Rain = 0
KLA1 141640Z 24001KT 33/21 A3009 RMK A01 T03250214  RH  052%=      5-min Rain = 0
KLA1 141641Z 25001KT 33/21 A3009 RMK A01 T03250212  RH  051%=      5-min Rain = 0
KLA1 141642Z 27001KT 32/21 A3009 RMK A01 T03240212  RH  052%=      5-min Rain = 0
KLA1 141643Z 27001KT 32/21 A3009 RMK A01 T03240213  RH  052%=      5-min Rain = 0
KLA1 141644Z 22001KT 32/21 A3009 RMK A01 T03240213  RH  052%=      5-min Rain = 0
KLA1 141645Z 18002KT 32/21 A3009 RMK A01 T03240211  RH  051%=      5-min Rain = 0
KLA1 141646Z 20001KT 32/21 A3009 RMK A01 T03230211  RH  052%=      5-min Rain = 0
KLA1 141647Z 23001KT 32/21 A3009 RMK A01 T03230213  RH  052%=      5-min Rain = 0
KLA1 141648Z 25001KT 32/21 A3009 RMK A01 T03240212  RH  052%=      5-min Rain = 0
KLA1 141649Z 00000KT 33/21 A3009 RMK A01 T03250212  RH  051%=      5-min Rain = 0
KLA1 141650Z 25001KT 33/21 A3009 RMK A01 T03270212  RH  051%=      5-min Rain = 0
KLA1 141651Z 26002KT 33/22 A3009 RMK A01 T03290215  RH  051%=      5-min Rain = 0
KLA1 141652Z 25002KT 33/21 A3009 RMK A01 T03310214  RH  051%=      5-min Rain = 0
KLA1 141653Z 28004KT 33/22 A3009 RMK A01 T03310218  RH  051%=      5-min Rain = 0
KLA1 141654Z 33003KT 33/22 A3009 RMK A01 T03320217  RH  051%=      5-min Rain = 0
KLA1 141655Z 34003KT 33/21 A3009 RMK A01 T03330214  RH  050%=      5-min Rain = 0
KLA1 141656Z 30004KT 33/22 A3009 RMK A01 T03340220  RH  051%=      5-min Rain = 0
KLA1 141657Z 29005KT 34/22 A3009 RMK A01 T03350217  RH  050%=      5-min Rain = 0
KLA1 141658Z 28004KT 33/22 A3009 RMK A01 T03340218  RH  051%=      5-min Rain = 0
KLA1 141659Z 29004KT 33/22 A3009 RMK A01 T03330220  RH  051%=      5-min Rain = 0
KLA1 141700Z 30004KT 33/22 A3009 RMK A01 T03340216  RH  050%=      5-min Rain = 0
KLA1 141701Z 31003KT 33/21 A3009 RMK A01 T03340213  RH  049%=      5-min Rain = 0
KLA1 141702Z 31002KT 33/21 A3009 RMK A01 T03320213  RH  050%=      5-min Rain = 0
KLA1 141703Z 28002KT 33/21 A3009 RMK A01 T03320214  RH  050%=      5-min Rain = 0
KLA1 141704Z 27001KT 33/22 A3009 RMK A01 T03330215  RH  050%=      5-min Rain = 0
KLA1 141705Z 29002KT 34/22 A3009 RMK A01 T03350216  RH  050%=      5-min Rain = 0
KLA1 141706Z 31004KT 34/22 A3009 RMK A01 T03370217  RH  050%=      5-min Rain = 0
KLA1 141707Z 30003KT 34/22 A3009 RMK A01 T03360219  RH  050%=      5-min Rain = 0
KLA1 141708Z 34004KT 34/22 A3009 RMK A01 T03380222  RH  051%=      5-min Rain = 0
KLA1 141709Z 35003KT 34/22 A3009 RMK A01 T03390215  RH  048%=      5-min Rain = 0
KLA1 141710Z 35003KT 34/22 A3009 RMK A01 T03380219  RH  050%=      5-min Rain = 0
KLA1 141711Z 33000KT 34/22 A3009 RMK A01 T03370221  RH  051%=      5-min Rain = 0
KLA1 141712Z 34000KT 34/22 A3009 RMK A01 T03390217  RH  049%=      5-min Rain = 0
KLA1 141713Z 32001KT 34/22 A3008 RMK A01 T03400219  RH  050%=      5-min Rain = 0
KLA1 141714Z 27001KT 34/22 A3008 RMK A01 T03400220  RH  050%=      5-min Rain = 0
KLA1 141715Z 10001KT 34/22 A3008 RMK A01 T03390223  RH  051%=      5-min Rain = 0
KLA1 141716Z 10003KT 34/22 A3008 RMK A01 T03420222  RH  050%=      5-min Rain = 0
KLA1 141717Z 11002KT 34/22 A3008 RMK A01 T03420222  RH  050%=      5-min Rain = 0
KLA1 141718Z 13001KT 34/22 A3008 RMK A01 T03420221  RH  050%=      5-min Rain = 0
KLA1 141719Z 31001KT 34/22 A3008 RMK A01 T03410222  RH  050%=      5-min Rain = 0
KLA1 141720Z 24003KT 34/23 A3008 RMK A01 T03420225  RH  050%=      5-min Rain = 0
KLA1 141721Z 24003KT 34/22 A3008 RMK A01 T03440218  RH  048%=      5-min Rain = 0
KLA1 141722Z 30006KT 34/22 A3008 RMK A01 T03420218  RH  049%=      5-min Rain = 0
KLA1 141723Z 31006KT 34/22 A3008 RMK A01 T03420215  RH  048%=      5-min Rain = 0
KLA1 141724Z 29005KT 34/22 A3008 RMK A01 T03410216  RH  048%=      5-min Rain = 0
KLA1 141725Z 27005KT 34/22 A3008 RMK A01 T03420217  RH  048%=      5-min Rain = 0
KLA1 141726Z 26005KT 34/22 A3008 RMK A01 T03430215  RH  047%=      5-min Rain = 0
KLA1 141727Z 26005KT 34/21 A3008 RMK A01 T03420213  RH  047%=      5-min Rain = 0
KLA1 141728Z 30004KT 34/22 A3008 RMK A01 T03420218  RH  049%=      5-min Rain = 0
KLA1 141729Z 35004KT 35/22 A3008 RMK A01 T03450217  RH  047%=      5-min Rain = 0
KLA1 141730Z 35006KT 35/21 A3008 RMK A01 T03490211  RH  045%=      5-min Rain = 0
KLA1 141731Z 36004KT 35/21 A3008 RMK A01 T03490208  RH  044%=      5-min Rain = 0
KLA1 141732Z 35007KT 35/21 A3008 RMK A01 T03480210  RH  045%=      5-min Rain = 0
KLA1 141733Z 34006KT 35/21 A3008 RMK A01 T03480207  RH  044%=      5-min Rain = 0
KLA1 141734Z 30004KT 35/21 A3008 RMK A01 T03460208  RH  045%=      5-min Rain = 0
KLA1 141735Z 29001KT 35/21 A3008 RMK A01 T03460211  RH  045%=      5-min Rain = 0
KLA1 141736Z 31001KT 35/21 A3008 RMK A01 T03470208  RH  044%=      5-min Rain = 0
KLA1 141737Z 34003KT 35/21 A3008 RMK A01 T03470208  RH  044%=      5-min Rain = 0
KLA1 141738Z 35005KT 35/21 A3008 RMK A01 T03470206  RH  044%=      5-min Rain = 0
KLA1 141739Z 36007KT 35/21 A3008 RMK A01 T03460207  RH  044%=      5-min Rain = 0
KLA1 141740Z 00007KT 35/20 A3008 RMK A01 T03460204  RH  043%=      5-min Rain = 0
KLA1 141741Z 00005KT 35/21 A3008 RMK A01 T03460205  RH  044%=      5-min Rain = 0
KLA1 141742Z 01007KT 35/21 A3008 RMK A01 T03460205  RH  044%=      5-min Rain = 0
KLA1 141743Z 36010KT 35/21 A3008 RMK A01 T03460207  RH  044%=      5-min Rain = 0
KLA1 141744Z 00011KT 35/21 A3008 RMK A01 T03470206  RH  044%=      5-min Rain = 0
KLA1 141745Z 02008KT 35/21 A3008 RMK A01 T03470208  RH  044%=      5-min Rain = 0
KLA1 141746Z 03008KT 35/21 A3008 RMK A01 T03470209  RH  045%=      5-min Rain = 0
KLA1 141747Z 02006KT 35/20 A3008 RMK A01 T03460202  RH  043%=      5-min Rain = 0
KLA1 141748Z 03006KT 35/20 A3008 RMK A01 T03460202  RH  043%=      5-min Rain = 0
KLA1 141749Z 05007KT 35/20 A3008 RMK A01 T03460203  RH  043%=      5-min Rain = 0
KLA1 141750Z 06004KT 35/20 A3008 RMK A01 T03450199  RH  042%=      5-min Rain = 0
KLA1 141751Z 04003KT 35/20 A3008 RMK A01 T03450203  RH  043%=      5-min Rain = 0
KLA1 141752Z 01005KT 35/21 A3008 RMK A01 T03450207  RH  044%=      5-min Rain = 0
KLA1 141753Z 36009KT 35/21 A3008 RMK A01 T03460210  RH  045%=      5-min Rain = 0
KLA1 141754Z 01011KT 35/21 A3008 RMK A01 T03450208  RH  045%=      5-min Rain = 0
KLA1 141755Z 01009KT 35/21 A3008 RMK A01 T03450207  RH  045%=      5-min Rain = 0
KLA1 141756Z 02008KT 35/21 A3008 RMK A01 T03450209  RH  045%=      5-min Rain = 0
KLA1 141757Z 02007KT 35/21 A3008 RMK A01 T03450211  RH  046%=      5-min Rain = 0
KLA1 141758Z 02005KT 35/21 A3008 RMK A01 T03470211  RH  045%=      5-min Rain = 0
KLA1 141759Z 02005KT 35/21 A3008 RMK A01 T03500209  RH  044%=      5-min Rain = 0
KLA1 141800Z 36006KT 35/21 A3008 RMK A01 T03510210  RH  044%=      5-min Rain = 0
KLA1 141801Z 35005KT 35/21 A3008 RMK A01 T03530211  RH  044%=      5-min Rain = 0
KLA1 141802Z 01005KT 35/21 A3007 RMK A01 T03520211  RH  044%=      5-min Rain = 0
KLA1 141803Z 02008KT 35/21 A3007 RMK A01 T03510213  RH  045%=      5-min Rain = 0
KLA1 141804Z 02004KT 35/21 A3007 RMK A01 T03520213  RH  044%=      5-min Rain = 0
KLA1 141805Z 01008KT 35/21 A3007 RMK A01 T03540210  RH  043%=      5-min Rain = 0
KLA1 141806Z 01007KT 36/21 A3007 RMK A01 T03550208  RH  043%=      5-min Rain = 0
KLA1 141807Z 01006KT 36/21 A3007 RMK A01 T03550208  RH  042%=      5-min Rain = 0
KLA1 141808Z 36005KT 36/21 A3007 RMK A01 T03550206  RH  042%=      5-min Rain = 0
KLA1 141809Z 01006KT 36/21 A3007 RMK A01 T03570207  RH  042%=      5-min Rain = 0
KLA1 141810Z 01004KT 36/20 A3007 RMK A01 T03570201  RH  040%=      5-min Rain = 0
KLA1 141811Z 01004KT 36/20 A3007 RMK A01 T03550201  RH  040%=      5-min Rain = 0
KLA1 141812Z 34002KT 35/20 A3007 RMK A01 T03540197  RH  040%=      5-min Rain = 0
KLA1 141813Z 34004KT 35/20 A3007 RMK A01 T03530197  RH  040%=      5-min Rain = 0
KLA1 141814Z 01005KT 36/20 A3007 RMK A01 T03550198  RH  040%=      5-min Rain = 0
KLA1 141815Z 01007KT 36/21 A3007 RMK A01 T03550208  RH  042%=      5-min Rain = 0
KLA1 141816Z 35006KT 35/21 A3007 RMK A01 T03540210  RH  043%=      5-min Rain = 0
KLA1 141817Z 34002KT 35/21 A3007 RMK A01 T03540209  RH  043%=      5-min Rain = 0
KLA1 141818Z 00002G7KT 35/21 A3007 RMK A01 T03520209  RH  043%=      5-min Rain = 0
KLA1 141819Z 01006KT 35/21 A3007 RMK A01 T03530212  RH  044%=      5-min Rain = 0
KLA1 141820Z 03004KT 35/22 A3007 RMK A01 T03530215  RH  045%=      5-min Rain = 0
KLA1 141821Z 01005G11KT 35/22 A3007 RMK A01 T03540216  RH  045%=      5-min Rain = 0
KLA1 141822Z 36009KT 35/21 A3007 RMK A01 T03540214  RH  044%=      5-min Rain = 0
KLA1 141823Z 36008KT 35/22 A3007 RMK A01 T03530215  RH  045%=      5-min Rain = 0
KLA1 141824Z 36005KT 35/21 A3007 RMK A01 T03520214  RH  045%=      5-min Rain = 0
KLA1 141825Z 36005KT 35/21 A3007 RMK A01 T03520212  RH  044%=      5-min Rain = 0
KLA1 141826Z 35003KT 35/21 A3007 RMK A01 T03510214  RH  045%=      5-min Rain = 0
KLA1 141827Z 31003KT 35/22 A3007 RMK A01 T03520217  RH  046%=      5-min Rain = 0
KLA1 141828Z 31007KT 36/22 A3007 RMK A01 T03550217  RH  045%=      5-min Rain = 0
KLA1 141829Z 36007KT 36/22 A3007 RMK A01 T03570219  RH  045%=      5-min Rain = 0
KLA1 141830Z 01003KT 36/21 A3007 RMK A01 T03580213  RH  043%=      5-min Rain = 0
KLA1 141831Z 08002KT 36/21 A3006 RMK A01 T03580214  RH  043%=      5-min Rain = 0
KLA1 141832Z 09002KT 36/21 A3006 RMK A01 T03550210  RH  043%=      5-min Rain = 0
KLA1 141833Z 05001G6KT 35/21 A3006 RMK A01 T03520210  RH  044%=      5-min Rain = 0
KLA1 141834Z 05007KT 35/21 A3006 RMK A01 T03520211  RH  044%=      5-min Rain = 0
KLA1 141835Z 05005KT 35/21 A3006 RMK A01 T03540209  RH  043%=      5-min Rain = 0
KLA1 141836Z 04005KT 36/21 A3006 RMK A01 T03560210  RH  043%=      5-min Rain = 0
KLA1 141837Z 06005KT 36/21 A3006 RMK A01 T03580210  RH  042%=      5-min Rain = 0
KLA1 141838Z 05006KT 36/21 A3006 RMK A01 T03590210  RH  042%=      5-min Rain = 0
KLA1 141839Z 09006KT 36/21 A3006 RMK A01 T03590209  RH  042%=      5-min Rain = 0
KLA1 141840Z 07003KT 36/21 A3006 RMK A01 T03560207  RH  042%=      5-min Rain = 0
KLA1 141841Z 07003KT 36/21 A3006 RMK A01 T03550207  RH  042%=      5-min Rain = 0
KLA1 141842Z 35002KT 35/21 A3006 RMK A01 T03530208  RH  043%=      5-min Rain = 0
KLA1 141843Z 29003KT 35/21 A3006 RMK A01 T03530208  RH  043%=      5-min Rain = 0
KLA1 141844Z 29003KT 35/21 A3005 RMK A01 T03530208  RH  043%=      5-min Rain = 0
KLA1 141845Z 25002KT 35/21 A3005 RMK A01 T03540209  RH  043%=      5-min Rain = 0
KLA1 141846Z 06003KT 36/21 A3005 RMK A01 T03550209  RH  043%=      5-min Rain = 0
KLA1 141847Z 35003G8KT 36/21 A3005 RMK A01 T03550209  RH  043%=      5-min Rain = 0
KLA1 141848Z 00007KT 36/21 A3005 RMK A01 T03550210  RH  043%=      5-min Rain = 0
KLA1 141849Z 35002KT 35/21 A3005 RMK A01 T03530208  RH  043%=      5-min Rain = 0
KLA1 141850Z 32001KT 35/21 A3005 RMK A01 T03520208  RH  043%=      5-min Rain = 0
KLA1 141851Z 02002KT 35/21 A3005 RMK A01 T03510210  RH  044%=      5-min Rain = 0
KLA1 141852Z 07004KT 35/21 A3005 RMK A01 T03540212  RH  044%=      5-min Rain = 0
KLA1 141853Z 03004KT 36/21 A3005 RMK A01 T03560211  RH  043%=      5-min Rain = 0
KLA1 141854Z 01009KT 36/21 A3005 RMK A01 T03570210  RH  042%=      5-min Rain = 0
KLA1 141855Z 02005KT 36/21 A3004 RMK A01 T03580212  RH  043%=      5-min Rain = 0
KLA1 141856Z 36004KT 36/21 A3004 RMK A01 T03580210  RH  042%=      5-min Rain = 0
KLA1 141857Z 06002KT 36/21 A3004 RMK A01 T03560208  RH  042%=      5-min Rain = 0
KLA1 141858Z 20002KT 36/21 A3004 RMK A01 T03550210  RH  043%=      5-min Rain = 0
KLA1 141859Z 36004KT 36/21 A3004 RMK A01 T03560209  RH  042%=      5-min Rain = 0
KLA1 141900Z 36008KT 36/21 A3004 RMK A01 T03580212  RH  043%=      5-min Rain = 0
KLA1 141901Z 34005G10KT 36/21 A3004 RMK A01 T03580211  RH  043%=      5-min Rain = 0
KLA1 141902Z 00010KT 36/21 A3003 RMK A01 T03590210  RH  042%=      5-min Rain = 0
KLA1 141903Z 01008KT 36/21 A3003 RMK A01 T03580209  RH  042%=      5-min Rain = 0
KLA1 141904Z 02004KT 36/21 A3003 RMK A01 T03560209  RH  042%=      5-min Rain = 0
KLA1 141905Z 04002KT 36/21 A3003 RMK A01 T03550208  RH  042%=      5-min Rain = 0
KLA1 141906Z 02001KT 35/20 A3003 RMK A01 T03540204  RH  042%=      5-min Rain = 0
KLA1 141907Z 07001KT 35/20 A3003 RMK A01 T03540204  RH  042%=      5-min Rain = 0
KLA1 141908Z 06002KT 35/21 A3003 RMK A01 T03540207  RH  042%=      5-min Rain = 0
KLA1 141909Z 02006KT 35/21 A3003 RMK A01 T03540208  RH  043%=      5-min Rain = 0
KLA1 141910Z 10003KT 35/21 A3003 RMK A01 T03530207  RH  043%=      5-min Rain = 0
KLA1 141911Z 10003KT 35/21 A3003 RMK A01 T03500206  RH  043%=      5-min Rain = 0
KLA1 141912Z 06002KT 35/21 A3003 RMK A01 T03480208  RH  044%=      5-min Rain = 0
KLA1 141913Z 00000KT 35/21 A3003 RMK A01 T03480209  RH  044%=      5-min Rain = 0
KLA1 141914Z 13001KT 35/21 A3003 RMK A01 T03480208  RH  044%=      5-min Rain = 0
KLA1 141915Z 18002KT 35/21 A3004 RMK A01 T03480207  RH  044%=      5-min Rain = 0
KLA1 141916Z 22005KT 35/21 A3004 RMK A01 T03480213  RH  045%=      5-min Rain = 0
KLA1 141917Z 24007KT 35/21 A3004 RMK A01 T03480211  RH  045%=      5-min Rain = 0
KLA1 141918Z 18011KT 34/21 A3004 RMK A01 T03440212  RH  046%=      5-min Rain = 0
KLA1 141919Z 17010KT 34/21 A3004 RMK A01 T03360210  RH  048%=      5-min Rain = 0
KLA1 141920Z 16008G13KT 33/21 A3004 RMK A01 T03300208  RH  049%=      5-min Rain = 0
KLA1 141921Z 17011G16KT 32/20 A3004 RMK A01 T03240203  RH  049%=      5-min Rain = 0
KLA1 141922Z 18010KT 32/20 A3004 RMK A01 T03180203  RH  050%=      5-min Rain = 0
KLA1 141923Z 18009KT 31/21 A3004 RMK A01 T03120206  RH  053%=      5-min Rain = 0
KLA1 141924Z 18011KT 31/21 A3005 RMK A01 T03090208  RH  055%=      5-min Rain = 0
KLA1 141925Z 18010G15KT 31/21 A3005 RMK A01 T03050207  RH  056%=      5-min Rain = 0
KLA1 141926Z 16012KT 30/20 A3005 RMK A01 T03040203  RH  055%=      5-min Rain = 0
KLA1 141927Z 17014KT 30/20 A3005 RMK A01 T03020196  RH  053%=      5-min Rain = 0
KLA1 141928Z 17014G20KT 30/19 A3005 RMK A01 T03000194  RH  053%=      5-min Rain = 0
KLA1 141929Z 15013G20KT 30/20 A3005 RMK A01 T02960196  RH  055%=      5-min Rain = 0
KLA1 141930Z 15012G18KT 29/20 A3005 RMK A01 T02930199  RH  057%=      5-min Rain = 0
KLA1 141931Z 16014KT 29/20 A3005 RMK A01 T02920200  RH  058%=      5-min Rain = 0
KLA1 141932Z 16012KT 29/20 A3005 RMK A01 T02890203  RH  060%=      5-min Rain = 0
KLA1 141933Z 15011KT 29/21 A3005 RMK A01 T02860205  RH  062%=      5-min Rain = 0
KLA1 141934Z 15011KT 28/21 A3005 RMK A01 T02820208  RH  064%=      5-min Rain = 0
KLA1 141935Z 15010KT 28/21 A3004 RMK A01 T02790208  RH  065%=      5-min Rain = 0
KLA1 141936Z 14009KT 28/21 A3004 RMK A01 T02770209  RH  066%=      5-min Rain = 0
KLA1 141937Z 14009KT 28/21 A3005 RMK A01 T02760214  RH  069%=      5-min Rain = 0
KLA1 141938Z 14010KT 27/22 A3005 RMK A01 T02740216  RH  071%=      5-min Rain = 0.01
KLA1 141939Z 14012KT 27/22 A3005 RMK A01 T02720217  RH  072%=      5-min Rain = 0
KLA1 141940Z 13013G20KT 27/22 A3006 RMK A01 T02680220  RH  075%=      5-min Rain = 0.02
KLA1 141941Z 14015G20KT 26/22 A3007 RMK A01 T02630219  RH  077%=      5-min Rain = 0.03
KLA1 141942Z 15018KT 26/22 A3007 RMK A01 T02550217  RH  079%=      5-min Rain = 0.04
KLA1 141943Z 15015G21KT 25/22 A3008 RMK A01 T02490218  RH  083%=      5-min Rain = 0.03
KLA1 141944Z 14017KT 24/22 A3008 RMK A01 T02430218  RH  086%=      5-min Rain = 0.03
KLA1 141945Z 15019KT 24/22 A3008 RMK A01 T02390217  RH  087%=      5-min Rain = 0.05
KLA1 141946Z 15016KT 24/22 A3008 RMK A01 T02370218  RH  089%=      5-min Rain = 0.04
KLA1 141947Z 14015KT 24/22 A3009 RMK A01 T02360221  RH  091%=      5-min Rain = 0.05
KLA1 141948Z 14017G23KT 23/22 A3009 RMK A01 T02340223  RH  093%=      5-min Rain = 0.05
KLA1 141949Z 14019G24KT 23/22 A3009 RMK A01 T02330224  RH  095%=      5-min Rain = 0.06
KLA1 141950Z 13020G28KT 23/22 A3008 RMK A01 T02300220  RH  094%=      5-min Rain = 0.05
KLA1 141951Z 12024G32KT 23/22 A3008 RMK A01 T02270218  RH  095%=      5-min Rain = 0.03
KLA1 141952Z 12026G39KT 23/22 A3008 RMK A01 T02250216  RH  095%=      5-min Rain = 0.08
KLA1 141953Z 12034G40KT 22/22 A3008 RMK A01 T02220217  RH  097%=      5-min Rain = 0.08
KLA1 141954Z 12026G32KT 22/22 A3007 RMK A01 T02180218  RH  100%=      5-min Rain = 0.02
KLA1 141955Z 11023G29KT 22/22 A3008 RMK A01 T02160216  RH  100%=      5-min Rain = 0.01
KLA1 141956Z 12019G26KT 22/22 A3008 RMK A01 T02160216  RH  100%=      5-min Rain = 0.02
KLA1 141957Z 12024G31KT 22/22 A3008 RMK A01 T02170217  RH  100%=      5-min Rain = 0.04
KLA1 141958Z 13030G40KT 22/22 A3007 RMK A01 T02170217  RH  100%=      5-min Rain = 0.09
KLA1 141959Z 13034G39KT 22/21 A3008 RMK A01 T02160212  RH  098%=      5-min Rain = 0.08
KLA1 142000Z 13021G28KT 21/21 A3009 RMK A01 T02130209  RH  098%=      5-min Rain = 0.06
KLA1 142001Z 12021KT 21/21 A3009 RMK A01 T02110209  RH  099%=      5-min Rain = 0.03
KLA1 142002Z 12016KT 21/21 A301 RMK A01 T02130213  RH  100%=      5-min Rain = 0.06
KLA1 142003Z 14005G11KT 21/21 A3011 RMK A01 T02130206  RH  096%=      5-min Rain = 0.08
KLA1 142004Z 32003KT 21/21 A3011 RMK A01 T02120212  RH  100%=      5-min Rain = 0.06
KLA1 142005Z 34012KT 22/22 A3012 RMK A01 T02180218  RH  100%=      5-min Rain = 0.06
KLA1 142006Z 32011KT 22/22 A3012 RMK A01 T02230222  RH  100%=      5-min Rain = 0.09
KLA1 142007Z 27016KT 22/22 A3011 RMK A01 T02240220  RH  098%=      5-min Rain = 0.08
KLA1 142008Z 25020G26KT 22/21 A301 RMK A01 T02230211  RH  093%=      5-min Rain = 0.08
KLA1 142009Z 23016G23KT 22/21 A3009 RMK A01 T02240205  RH  089%=      5-min Rain = 0.07
KLA1 142010Z 29027KT 23/21 A3008 RMK A01 T02280205  RH  086%=      5-min Rain = 0.1
KLA1 142011Z 27022G28KT 22/21 A3008 RMK A01 T02230206  RH  090%=      5-min Rain = 0.06
KLA1 142012Z 27022KT 22/20 A3007 RMK A01 T02220197  RH  086%=      5-min Rain = 0.04
KLA1 142013Z 28022G28KT 23/19 A3007 RMK A01 T02270188  RH  078%=      5-min Rain = 0.05
KLA1 142014Z 28020KT 23/20 A3008 RMK A01 T02280201  RH  085%=      5-min Rain = 0.03
KLA1 142015Z 27020G26KT 22/20 A3008 RMK A01 T02230204  RH  089%=      5-min Rain = 0.04
KLA1 142016Z 27024KT 22/20 A3007 RMK A01 T02190200  RH  089%=      5-min Rain = 0.03
KLA1 142017Z 26017G23KT 22/20 A3007 RMK A01 T02160195  RH  088%=      5-min Rain = 0.02
KLA1 142018Z 27018KT 21/19 A3008 RMK A01 T02140193  RH  088%=      5-min Rain = 0.03
KLA1 142019Z 27016KT 21/20 A3008 RMK A01 T02130196  RH  090%=      5-min Rain = 0.01
KLA1 142020Z 27010G17KT 21/20 A3008 RMK A01 T02130197  RH  091%=      5-min Rain = 0.02
KLA1 142021Z 27010KT 21/20 A3007 RMK A01 T02120199  RH  092%=      5-min Rain = 0
KLA1 142022Z 28007KT 21/20 A3007 RMK A01 T02110198  RH  093%=      5-min Rain = 0
KLA1 142023Z 27009KT 21/20 A3007 RMK A01 T02110201  RH  094%=      5-min Rain = 0
KLA1 142024Z 27009KT 21/20 A3007 RMK A01 T02110202  RH  094%=      5-min Rain = 0
KLA1 142025Z 25009KT 21/20 A3007 RMK A01 T02120200  RH  093%=      5-min Rain = 0
KLA1 142026Z 26006KT 21/20 A3007 RMK A01 T02130199  RH  092%=      5-min Rain = 0
KLA1 142027Z 26004KT 21/20 A3007 RMK A01 T02140201  RH  092%=      5-min Rain = 0
KLA1 142028Z 27002KT 21/20 A3007 RMK A01 T02140204  RH  094%=      5-min Rain = 0
KLA1 142029Z 21001KT 21/21 A3007 RMK A01 T02130206  RH  095%=      5-min Rain = 0
KLA1 142030Z 19002KT 21/21 A3007 RMK A01 T02130207  RH  096%=      5-min Rain = 0
KLA1 142031Z 10002KT 21/21 A3007 RMK A01 T02120207  RH  097%=      5-min Rain = 0
KLA1 142032Z 12007KT 21/21 A3007 RMK A01 T02120206  RH  096%=      5-min Rain = 0
KLA1 142033Z 13010KT 21/21 A3008 RMK A01 T02120207  RH  097%=      5-min Rain = 0
KLA1 142034Z 12011KT 21/21 A3008 RMK A01 T02130209  RH  098%=      5-min Rain = 0.02
KLA1 142035Z 10014KT 21/21 A3009 RMK A01 T02130206  RH  096%=      5-min Rain = 0
KLA1 142036Z 10013KT 21/21 A3009 RMK A01 T02140205  RH  095%=      5-min Rain = 0
KLA1 142037Z 10013KT 22/21 A3009 RMK A01 T02160205  RH  093%=      5-min Rain = 0
KLA1 142038Z 11012KT 22/20 A3009 RMK A01 T02190204  RH  091%=      5-min Rain = 0
KLA1 142039Z 11010KT 22/20 A3009 RMK A01 T02210202  RH  089%=      5-min Rain = 0
KLA1 142040Z 10011KT 22/20 A3009 RMK A01 T02220198  RH  086%=      5-min Rain = 0
KLA1 142041Z 11009KT 23/19 A3008 RMK A01 T02250194  RH  082%=      5-min Rain = 0
KLA1 142042Z 11008KT 23/19 A3008 RMK A01 T02270194  RH  081%=      5-min Rain = 0
KLA1 142043Z 11008KT 23/20 A3008 RMK A01 T02280196  RH  082%=      5-min Rain = 0.01
KLA1 142044Z 10009KT 23/20 A3008 RMK A01 T02300204  RH  085%=      5-min Rain = 0
KLA1 142045Z 09014KT 23/21 A3008 RMK A01 T02310208  RH  087%=      5-min Rain = 0
KLA1 142046Z 09013KT 23/21 A3008 RMK A01 T02310212  RH  089%=      5-min Rain = 0
KLA1 142047Z 09011KT 23/21 A3007 RMK A01 T02300214  RH  091%=      5-min Rain = 0
KLA1 142048Z 08010KT 23/22 A3007 RMK A01 T02290215  RH  092%=      5-min Rain = 0
KLA1 142049Z 08009KT 23/22 A3007 RMK A01 T02280215  RH  093%=      5-min Rain = 0
KLA1 142050Z 09008KT 23/22 A3007 RMK A01 T02270216  RH  093%=      5-min Rain = 0
KLA1 142051Z 09009KT 23/22 A3007 RMK A01 T02270215  RH  093%=      5-min Rain = 0
KLA1 142052Z 08007KT 23/22 A3006 RMK A01 T02270215  RH  093%=      5-min Rain = 0
KLA1 142053Z 09006KT 23/22 A3006 RMK A01 T02270215  RH  093%=      5-min Rain = 0
KLA1 142054Z 09007KT 23/22 A3006 RMK A01 T02270216  RH  093%=      5-min Rain = 0
KLA1 142055Z 09008KT 23/22 A3006 RMK A01 T02270217  RH  094%=      5-min Rain = 0
KLA1 142056Z 10009KT 23/22 A3006 RMK A01 T02270215  RH  093%=      5-min Rain = 0
KLA1 142057Z 10008KT 23/21 A3006 RMK A01 T02280212  RH  091%=      5-min Rain = 0
KLA1 142058Z 10006KT 23/21 A3006 RMK A01 T02290211  RH  089%=      5-min Rain = 0
KLA1 142059Z 09006KT 23/21 A3006 RMK A01 T02300211  RH  089%=      5-min Rain = 0
KLA1 142100Z 09005KT 23/22 A3006 RMK A01 T02310215  RH  091%=      5-min Rain = 0
KLA1 142101Z 09004KT 23/22 A3006 RMK A01 T02300216  RH  092%=      5-min Rain = 0
KLA1 142102Z 10003KT 23/22 A3006 RMK A01 T02290217  RH  093%=      5-min Rain = 0
KLA1 142103Z 10003KT 23/22 A3006 RMK A01 T02290218  RH  093%=      5-min Rain = 0
KLA1 142104Z 09003KT 23/22 A3006 RMK A01 T02290219  RH  094%=      5-min Rain = 0
KLA1 142105Z 10003KT 23/22 A3006 RMK A01 T02290219  RH  094%=      5-min Rain = 0
KLA1 142106Z 09003KT 23/22 A3006 RMK A01 T02290218  RH  094%=      5-min Rain = 0
KLA1 142107Z 09004KT 23/22 A3006 RMK A01 T02290216  RH  093%=      5-min Rain = 0
KLA1 142108Z 07004KT 23/22 A3006 RMK A01 T02290217  RH  093%=      5-min Rain = 0
KLA1 142109Z 07003KT 23/22 A3006 RMK A01 T02290217  RH  093%=      5-min Rain = 0
KLA1 142110Z 08002KT 23/22 A3006 RMK A01 T02290219  RH  094%=      5-min Rain = 0
KLA1 142111Z 07001KT 23/22 A3006 RMK A01 T02290220  RH  094%=      5-min Rain = 0
KLA1 142112Z 21000KT 23/22 A3005 RMK A01 T02290221  RH  095%=      5-min Rain = 0
KLA1 142113Z 21002KT 23/22 A3005 RMK A01 T02300220  RH  094%=      5-min Rain = 0
KLA1 142114Z 21003KT 23/22 A3005 RMK A01 T02300222  RH  095%=      5-min Rain = 0
KLA1 142115Z 21003KT 23/23 A3005 RMK A01 T02300225  RH  097%=      5-min Rain = 0
KLA1 142116Z 21002KT 23/23 A3005 RMK A01 T02310226  RH  097%=      5-min Rain = 0
KLA1 142117Z 21000KT 23/23 A3006 RMK A01 T02310228  RH  098%=      5-min Rain = 0
KLA1 142118Z 00000KT 23/23 A3006 RMK A01 T02310229  RH  099%=      5-min Rain = 0
KLA1 142119Z 00000KT 23/23 A3006 RMK A01 T02300228  RH  099%=      5-min Rain = 0
KLA1 142120Z 00000KT 23/23 A3006 RMK A01 T02300229  RH  100%=      5-min Rain = 0
KLA1 142121Z 00000KT 23/23 A3006 RMK A01 T02300230  RH  100%=      5-min Rain = 0
KLA1 142122Z 00000KT 23/23 A3006 RMK A01 T02300230  RH  100%=      5-min Rain = 0
KLA1 142123Z 31001KT 23/23 A3006 RMK A01 T02310231  RH  100%=      5-min Rain = 0
KLA1 142124Z 33002KT 23/23 A3006 RMK A01 T02310231  RH  100%=      5-min Rain = 0
KLA1 142125Z 33003KT 23/23 A3007 RMK A01 T02310231  RH  100%=      5-min Rain = 0
KLA1 142126Z 31004KT 23/23 A3007 RMK A01 T02310229  RH  099%=      5-min Rain = 0
KLA1 142127Z 30006KT 23/23 A3007 RMK A01 T02300228  RH  099%=      5-min Rain = 0
KLA1 142128Z 30006KT 23/23 A3007 RMK A01 T02310231  RH  100%=      5-min Rain = 0
KLA1 142129Z 31007KT 23/23 A3007 RMK A01 T02310231  RH  100%=      5-min Rain = 0
KLA1 142130Z 32007KT 23/23 A3007 RMK A01 T02310230  RH  100%=      5-min Rain = 0
KLA1 142131Z 31005KT 23/23 A3008 RMK A01 T02300229  RH  099%=      5-min Rain = 0
KLA1 142132Z 31008KT 23/23 A3008 RMK A01 T02300230  RH  100%=      5-min Rain = 0
KLA1 142133Z 31008KT 23/23 A3009 RMK A01 T02300230  RH  100%=      5-min Rain = 0
KLA1 142134Z 32007KT 23/23 A3009 RMK A01 T02300229  RH  100%=      5-min Rain = 0
KLA1 142135Z 32006KT 23/23 A301 RMK A01 T02290227  RH  098%=      5-min Rain = 0
KLA1 142136Z 31006KT 23/22 A301 RMK A01 T02290221  RH  095%=      5-min Rain = 0
KLA1 142137Z 33007G14KT 23/22 A301 RMK A01 T02300218  RH  093%=      5-min Rain = 0
KLA1 142138Z 34010G15KT 23/22 A301 RMK A01 T02320217  RH  091%=      5-min Rain = 0
KLA1 142139Z 33007G12KT 23/22 A3011 RMK A01 T02340215  RH  089%=      5-min Rain = 0
KLA1 142140Z 35007KT 24/22 A3011 RMK A01 T02360217  RH  090%=      5-min Rain = 0
KLA1 142141Z 35008KT 24/22 A3011 RMK A01 T02360216  RH  089%=      5-min Rain = 0
KLA1 142142Z 36005KT 24/22 A3011 RMK A01 T02360217  RH  089%=      5-min Rain = 0
KLA1 142143Z 36005KT 24/22 A3012 RMK A01 T02360218  RH  089%=      5-min Rain = 0.01
KLA1 142144Z 35004KT 24/22 A3012 RMK A01 T02360218  RH  090%=      5-min Rain = 0.02
KLA1 142145Z 32002KT 24/22 A3012 RMK A01 T02350218  RH  090%=      5-min Rain = 0
KLA1 142146Z 31001KT 24/22 A3013 RMK A01 T02350217  RH  090%=      5-min Rain = 0.01
KLA1 142147Z 30001KT 24/22 A3013 RMK A01 T02350219  RH  091%=      5-min Rain = 0.01
KLA1 142148Z 07002KT 23/22 A3013 RMK A01 T02340219  RH  091%=      5-min Rain = 0.02
KLA1 142149Z 06003KT 23/22 A3013 RMK A01 T02330218  RH  091%=      5-min Rain = 0
KLA1 142150Z 06004KT 23/22 A3013 RMK A01 T02320217  RH  091%=      5-min Rain = 0.01
KLA1 142151Z 04005KT 23/22 A3013 RMK A01 T02310218  RH  092%=      5-min Rain = 0
KLA1 142152Z 05008KT 23/22 A3013 RMK A01 T02300218  RH  093%=      5-min Rain = 0
KLA1 142153Z 05006KT 23/22 A3013 RMK A01 T02290218  RH  093%=      5-min Rain = 0.01
KLA1 142154Z 05004KT 23/22 A3013 RMK A01 T02290218  RH  093%=      5-min Rain = 0
KLA1 142155Z 03004KT 23/22 A3013 RMK A01 T02290220  RH  094%=      5-min Rain = 0
KLA1 142156Z 02004KT 23/22 A3013 RMK A01 T02290220  RH  095%=      5-min Rain = 0
KLA1 142157Z 02004KT 23/22 A3012 RMK A01 T02280221  RH  096%=      5-min Rain = 0
KLA1 142158Z 04004KT 23/22 A3012 RMK A01 T02280221  RH  096%=      5-min Rain = 0
KLA1 142159Z 06003KT 23/22 A3012 RMK A01 T02280220  RH  096%=      5-min Rain = 0
KLA1 142200Z 11003G8KT 23/22 A3012 RMK A01 T02270217  RH  094%=      5-min Rain = 0
KLA1 142201Z 13006KT 23/22 A3012 RMK A01 T02270215  RH  093%=      5-min Rain = 0.01
KLA1 142202Z 13004KT 23/21 A3012 RMK A01 T02270214  RH  092%=      5-min Rain = 0
KLA1 142203Z 05003KT 23/21 A3012 RMK A01 T02280213  RH  092%=      5-min Rain = 0
KLA1 142204Z 05005KT 23/21 A3012 RMK A01 T02270209  RH  089%=      5-min Rain = 0
KLA1 142205Z 04003KT 23/21 A3012 RMK A01 T02270207  RH  088%=      5-min Rain = 0.01
KLA1 142206Z 28001KT 23/21 A3012 RMK A01 T02270206  RH  088%=      5-min Rain = 0.02
KLA1 142207Z 22002KT 23/21 A3012 RMK A01 T02280211  RH  090%=      5-min Rain = 0.01
KLA1 142208Z 16001KT 23/21 A3012 RMK A01 T02270211  RH  091%=      5-min Rain = 0
KLA1 142209Z 25003KT 23/22 A3012 RMK A01 T02270216  RH  094%=      5-min Rain = 0.01
KLA1 142210Z 25004KT 23/22 A3012 RMK A01 T02260222  RH  097%=      5-min Rain = 0.02
KLA1 142211Z 26005KT 23/22 A3012 RMK A01 T02260224  RH  099%=      5-min Rain = 0
KLA1 142212Z 25005KT 23/23 A3012 RMK A01 T02260226  RH  100%=      5-min Rain = 0
KLA1 142213Z 25004KT 23/23 A3011 RMK A01 T02260226  RH  100%=      5-min Rain = 0
KLA1 142214Z 24003KT 23/23 A3011 RMK A01 T02250225  RH  100%=      5-min Rain = 0.01
KLA1 142215Z 24003KT 23/23 A3011 RMK A01 T02250225  RH  100%=      5-min Rain = 0
KLA1 142216Z 23003KT 22/22 A3011 RMK A01 T02240224  RH  100%=      5-min Rain = 0
KLA1 142217Z 22003KT 22/22 A3011 RMK A01 T02240224  RH  100%=      5-min Rain = 0
KLA1 142218Z 20002KT 22/22 A301 RMK A01 T02240224  RH  100%=      5-min Rain = 0.01
KLA1 142219Z 20002KT 22/22 A301 RMK A01 T02240224  RH  100%=      5-min Rain = 0
KLA1 142220Z 20003KT 22/22 A301 RMK A01 T02240224  RH  100%=      5-min Rain = 0.02
KLA1 142221Z 20004KT 22/22 A301 RMK A01 T02230223  RH  100%=      5-min Rain = 0
KLA1 142222Z 21005KT 22/22 A301 RMK A01 T02230223  RH  100%=      5-min Rain = 0
KLA1 142223Z 21006KT 22/22 A3009 RMK A01 T02220223  RH  100%=      5-min Rain = 0.01
KLA1 142224Z 22007KT 22/22 A3009 RMK A01 T02220223  RH  100%=      5-min Rain = 0
KLA1 142225Z 21007KT 22/22 A3008 RMK A01 T02220223  RH  100%=      5-min Rain = 0
KLA1 142226Z 20007KT 22/22 A3008 RMK A01 T02220222  RH  100%=      5-min Rain = 0.01
KLA1 142227Z 20007KT 22/22 A3008 RMK A01 T02220222  RH  100%=      5-min Rain = 0
KLA1 142228Z 19007KT 22/22 A3008 RMK A01 T02220222  RH  100%=      5-min Rain = 0
KLA1 142229Z 20008KT 22/22 A3008 RMK A01 T02210222  RH  100%=      5-min Rain = 0
KLA1 142230Z 20009KT 22/22 A3007 RMK A01 T02210221  RH  100%=      5-min Rain = 0
KLA1 142231Z 20009KT 22/22 A3007 RMK A01 T02200221  RH  100%=      5-min Rain = 0.01
KLA1 142232Z 20009KT 22/22 A3007 RMK A01 T02210221  RH  100%=      5-min Rain = 0
KLA1 142233Z 20007KT 22/22 A3007 RMK A01 T02210221  RH  100%=      5-min Rain = 0
KLA1 142234Z 19006KT 22/22 A3006 RMK A01 T02210221  RH  100%=      5-min Rain = 0
KLA1 142235Z 19004KT 22/22 A3006 RMK A01 T02200221  RH  100%=      5-min Rain = 0
KLA1 142236Z 19004KT 22/22 A3006 RMK A01 T02210221  RH  100%=      5-min Rain = 0
KLA1 142237Z 19002KT 22/22 A3006 RMK A01 T02210221  RH  100%=      5-min Rain = 0
KLA1 142238Z 21005KT 22/22 A3006 RMK A01 T02210221  RH  100%=      5-min Rain = 0
KLA1 142239Z 21004KT 22/22 A3006 RMK A01 T02200221  RH  100%=      5-min Rain = 0
KLA1 142240Z 27000KT 22/22 A3006 RMK A01 T02210221  RH  100%=      5-min Rain = 0
KLA1 142241Z 24001KT 22/22 A3006 RMK A01 T02210221  RH  100%=      5-min Rain = 0
KLA1 142242Z 23001KT 22/22 A3006 RMK A01 T02210221  RH  100%=      5-min Rain = 0
KLA1 142243Z 36002KT 22/22 A3006 RMK A01 T02210221  RH  100%=      5-min Rain = 0
KLA1 142244Z 00004KT 22/22 A3006 RMK A01 T02210221  RH  100%=      5-min Rain = 0
KLA1 142245Z 34003KT 22/22 A3006 RMK A01 T02210221  RH  100%=      5-min Rain = 0
KLA1 142246Z 32004KT 22/22 A3006 RMK A01 T02210221  RH  100%=      5-min Rain = 0
KLA1 142247Z 34004KT 22/22 A3006 RMK A01 T02210221  RH  100%=      5-min Rain = 0
KLA1 142248Z 36004KT 22/22 A3006 RMK A01 T02210222  RH  100%=      5-min Rain = 0
KLA1 142249Z 36005KT 22/22 A3006 RMK A01 T02220222  RH  100%=      5-min Rain = 0
KLA1 142250Z 34004KT 22/22 A3007 RMK A01 T02220222  RH  100%=      5-min Rain = 0
KLA1 142251Z 33006KT 22/22 A3007 RMK A01 T02230223  RH  100%=      5-min Rain = 0
KLA1 142252Z 33006KT 22/22 A3006 RMK A01 T02220223  RH  100%=      5-min Rain = 0
KLA1 142253Z 32006KT 22/22 A3006 RMK A01 T02220223  RH  100%=      5-min Rain = 0
KLA1 142254Z 31004KT 22/22 A3006 RMK A01 T02230223  RH  100%=      5-min Rain = 0
KLA1 142255Z 31003KT 22/22 A3006 RMK A01 T02230224  RH  100%=      5-min Rain = 0
KLA1 142256Z 27002KT 22/22 A3006 RMK A01 T02240224  RH  100%=      5-min Rain = 0
KLA1 142257Z 29003KT 22/22 A3006 RMK A01 T02240224  RH  100%=      5-min Rain = 0
KLA1 142258Z 32002KT 22/22 A3006 RMK A01 T02240224  RH  100%=      5-min Rain = 0
KLA1 142259Z 31001KT 22/22 A3006 RMK A01 T02240224  RH  100%=      5-min Rain = 0
KLA1 142300Z 35001KT 22/22 A3006 RMK A01 T02240224  RH  100%=      5-min Rain = 0
KLA1 142301Z 23000KT 22/22 A3006 RMK A01 T02240224  RH  100%=      5-min Rain = 0
KLA1 142302Z 00000KT 22/22 A3005 RMK A01 T02240224  RH  100%=      5-min Rain = 0
KLA1 142303Z 25001KT 22/22 A3005 RMK A01 T02240224  RH  100%=      5-min Rain = 0
KLA1 142304Z 26001KT 22/22 A3005 RMK A01 T02240224  RH  100%=      5-min Rain = 0
KLA1 142305Z 25002KT 22/22 A3005 RMK A01 T02230224  RH  100%=      5-min Rain = 0
KLA1 142306Z 25001KT 22/22 A3005 RMK A01 T02230221  RH  099%=      5-min Rain = 0
KLA1 142307Z 25001KT 22/22 A3005 RMK A01 T02220220  RH  099%=      5-min Rain = 0
KLA1 142308Z 24003KT 22/22 A3005 RMK A01 T02220218  RH  098%=      5-min Rain = 0
KLA1 142309Z 23002KT 22/22 A3005 RMK A01 T02220218  RH  098%=      5-min Rain = 0
KLA1 142310Z 22004KT 22/22 A3005 RMK A01 T02230219  RH  098%=      5-min Rain = 0
KLA1 142311Z 20001KT 22/22 A3004 RMK A01 T02230218  RH  097%=      5-min Rain = 0
KLA1 142312Z 20001KT 22/22 A3004 RMK A01 T02230219  RH  097%=      5-min Rain = 0
KLA1 142313Z 00000KT 22/22 A3004 RMK A01 T02230219  RH  098%=      5-min Rain = 0
KLA1 142314Z 08001KT 22/22 A3004 RMK A01 T02240221  RH  098%=      5-min Rain = 0
KLA1 142315Z 07002KT 22/22 A3004 RMK A01 T02240221  RH  099%=      5-min Rain = 0
KLA1 142316Z 07002KT 22/22 A3003 RMK A01 T02240223  RH  099%=      5-min Rain = 0
KLA1 142317Z 07003KT 22/22 A3003 RMK A01 T02240224  RH  100%=      5-min Rain = 0.01
KLA1 142318Z 08003KT 22/22 A3003 RMK A01 T02240224  RH  100%=      5-min Rain = 0
KLA1 142319Z 08004KT 22/22 A3003 RMK A01 T02240224  RH  100%=      5-min Rain = 0
KLA1 142320Z 08004KT 22/22 A3002 RMK A01 T02230223  RH  100%=      5-min Rain = 0
KLA1 142321Z 09005KT 22/22 A3002 RMK A01 T02230224  RH  100%=      5-min Rain = 0
KLA1 142322Z 10006KT 22/22 A3001 RMK A01 T02240224  RH  100%=      5-min Rain = 0
KLA1 142323Z 10007KT 22/22 A3001 RMK A01 T02240224  RH  100%=      5-min Rain = 0
KLA1 142324Z 09008KT 22/22 A3001 RMK A01 T02240224  RH  100%=      5-min Rain = 0
KLA1 142325Z 09007KT 22/23 A3001 RMK A01 T02240225  RH  100%=      5-min Rain = 0
KLA1 142326Z 05004KT 23/23 A3002 RMK A01 T02250225  RH  100%=      5-min Rain = 0
KLA1 142327Z 34006KT 23/23 A3002 RMK A01 T02250225  RH  100%=      5-min Rain = 0
KLA1 142328Z 32009KT 23/23 A3002 RMK A01 T02250225  RH  100%=      5-min Rain = 0
KLA1 142329Z 32009G14KT 23/22 A3002 RMK A01 T02260224  RH  099%=      5-min Rain = 0
KLA1 142330Z 33008KT 23/22 A3002 RMK A01 T02260224  RH  099%=      5-min Rain = 0
KLA1 142331Z 32010G15KT 23/22 A3002 RMK A01 T02260224  RH  099%=      5-min Rain = 0
KLA1 142332Z 33011KT 23/22 A3002 RMK A01 T02260219  RH  096%=      5-min Rain = 0
KLA1 142333Z 33008KT 23/22 A3002 RMK A01 T02270217  RH  094%=      5-min Rain = 0
KLA1 142334Z 33007KT 23/22 A3002 RMK A01 T02280216  RH  093%=      5-min Rain = 0
KLA1 142335Z 32006KT 23/21 A3001 RMK A01 T02280213  RH  091%=      5-min Rain = 0
KLA1 142336Z 34004KT 23/21 A3001 RMK A01 T02290212  RH  090%=      5-min Rain = 0
KLA1 142337Z 33004KT 23/21 A3001 RMK A01 T02310212  RH  089%=      5-min Rain = 0
KLA1 142338Z 33004KT 23/21 A3001 RMK A01 T02310212  RH  089%=      5-min Rain = 0
KLA1 142339Z 33004KT 23/22 A3001 RMK A01 T02320215  RH  090%=      5-min Rain = 0
KLA1 142340Z 34004KT 23/22 A3001 RMK A01 T02320217  RH  091%=      5-min Rain = 0
KLA1 142341Z 34004KT 23/22 A3001 RMK A01 T02320215  RH  090%=      5-min Rain = 0
KLA1 142342Z 36004KT 23/21 A3001 RMK A01 T02320214  RH  090%=      5-min Rain = 0
KLA1 142343Z 02004KT 23/21 A3001 RMK A01 T02320214  RH  090%=      5-min Rain = 0
KLA1 142344Z 03002KT 23/22 A3001 RMK A01 T02320215  RH  090%=      5-min Rain = 0
KLA1 142345Z 01002KT 23/22 A3001 RMK A01 T02320217  RH  091%=      5-min Rain = 0
KLA1 142346Z 36002KT 23/22 A3001 RMK A01 T02320220  RH  093%=      5-min Rain = 0
KLA1 142347Z 35004KT 23/22 A3001 RMK A01 T02320223  RH  095%=      5-min Rain = 0
KLA1 142348Z 35005KT 23/22 A3001 RMK A01 T02320224  RH  095%=      5-min Rain = 0
KLA1 142349Z 01006KT 23/22 A3002 RMK A01 T02310223  RH  095%=      5-min Rain = 0
KLA1 142350Z 02007KT 23/22 A3002 RMK A01 T02300223  RH  096%=      5-min Rain = 0
KLA1 142351Z 02006KT 23/22 A3002 RMK A01 T02310220  RH  094%=      5-min Rain = 0
KLA1 142352Z 01006KT 23/22 A3002 RMK A01 T02300216  RH  092%=      5-min Rain = 0
KLA1 142353Z 02005KT 23/22 A3002 RMK A01 T02310215  RH  091%=      5-min Rain = 0
KLA1 142354Z 03005KT 23/22 A3002 RMK A01 T02320216  RH  091%=      5-min Rain = 0
KLA1 142355Z 03006KT 23/22 A3001 RMK A01 T02320218  RH  092%=      5-min Rain = 0
KLA1 142356Z 01005KT 23/22 A3001 RMK A01 T02320219  RH  092%=      5-min Rain = 0
KLA1 142357Z 00005KT 23/22 A3001 RMK A01 T02320219  RH  092%=      5-min Rain = 0
KLA1 142358Z 36006KT 23/22 A3001 RMK A01 T02320220  RH  093%=      5-min Rain = 0
KLA1 142359Z 00007KT 23/22 A3001 RMK A01 T02320219  RH  092%=      5-min Rain = 0
KLA1 150000Z 00006KT 23/22 A3001 RMK A01 T02320218  RH  092%=      5-min Rain = 0
KLA1 150001Z 01005KT 23/22 A3001 RMK A01 T02320219  RH  093%=      5-min Rain = 0
KLA1 150002Z 00005KT 23/22 A3001 RMK A01 T02310220  RH  093%=      5-min Rain = 0
KLA1 150003Z 01004KT 23/22 A3001 RMK A01 T02310221  RH  094%=      5-min Rain = 0
KLA1 150004Z 02004KT 23/22 A3001 RMK A01 T02310220  RH  094%=      5-min Rain = 0
KLA1 150005Z 03002KT 23/22 A3001 RMK A01 T02310220  RH  094%=      5-min Rain = 0
KLA1 150006Z 04002KT 23/22 A3001 RMK A01 T02310218  RH  092%=      5-min Rain = 0
KLA1 150007Z 03002KT 23/22 A3001 RMK A01 T02310218  RH  093%=      5-min Rain = 0
KLA1 150008Z 04001KT 23/22 A3001 RMK A01 T02300219  RH  093%=      5-min Rain = 0
KLA1 150009Z 06002KT 23/22 A3001 RMK A01 T02310220  RH  094%=      5-min Rain = 0
KLA1 150010Z 08002KT 23/22 A3001 RMK A01 T02310221  RH  094%=      5-min Rain = 0
KLA1 150011Z 11003KT 23/22 A3001 RMK A01 T02310221  RH  094%=      5-min Rain = 0
KLA1 150012Z 15003KT 23/22 A3001 RMK A01 T02310224  RH  096%=      5-min Rain = 0
KLA1 150013Z 15004KT 23/22 A3001 RMK A01 T02310224  RH  096%=      5-min Rain = 0
KLA1 150014Z 15004KT 23/22 A3001 RMK A01 T02310224  RH  096%=      5-min Rain = 0
KLA1 150015Z 15004KT 23/22 A3001 RMK A01 T02310224  RH  096%=      5-min Rain = 0
KLA1 150016Z 14005KT 23/23 A3001 RMK A01 T02310227  RH  097%=      5-min Rain = 0
KLA1 150017Z 16005KT 23/23 A3001 RMK A01 T02320229  RH  098%=      5-min Rain = 0
KLA1 150018Z 15004KT 23/23 A3001 RMK A01 T02310230  RH  099%=      5-min Rain = 0
KLA1 150019Z 14006KT 23/23 A3001 RMK A01 T02310231  RH  100%=      5-min Rain = 0
KLA1 150020Z 14005KT 23/23 A3001 RMK A01 T02310231  RH  100%=      5-min Rain = 0
KLA1 150021Z 14003KT 23/23 A3001 RMK A01 T02300230  RH  100%=      5-min Rain = 0
KLA1 150022Z 14003KT 23/23 A3002 RMK A01 T02300230  RH  100%=      5-min Rain = 0
KLA1 150023Z 15002KT 23/23 A3002 RMK A01 T02300230  RH  100%=      5-min Rain = 0
KLA1 150024Z 17001KT 23/23 A3002 RMK A01 T02300230  RH  100%=      5-min Rain = 0
KLA1 150025Z 23002KT 23/23 A3002 RMK A01 T02300230  RH  100%=      5-min Rain = 0
KLA1 150026Z 26003KT 23/23 A3002 RMK A01 T02300230  RH  100%=      5-min Rain = 0
KLA1 150027Z 28004KT 23/23 A3002 RMK A01 T02300230  RH  100%=      5-min Rain = 0
KLA1 150028Z 29005KT 23/23 A3002 RMK A01 T02300230  RH  100%=      5-min Rain = 0
KLA1 150029Z 28005KT 23/23 A3002 RMK A01 T02310231  RH  100%=      5-min Rain = 0
KLA1 150030Z 27004KT 23/23 A3002 RMK A01 T02310231  RH  100%=      5-min Rain = 0
KLA1 150031Z 26004KT 23/23 A3002 RMK A01 T02310231  RH  100%=      5-min Rain = 0
KLA1 150032Z 26003KT 23/23 A3002 RMK A01 T02300231  RH  100%=      5-min Rain = 0
KLA1 150033Z 27003KT 23/23 A3002 RMK A01 T02300230  RH  100%=      5-min Rain = 0
KLA1 150034Z 29002KT 23/23 A3002 RMK A01 T02290230  RH  100%=      5-min Rain = 0
KLA1 150035Z 30002KT 23/23 A3002 RMK A01 T02290230  RH  100%=      5-min Rain = 0
KLA1 150036Z 30002KT 23/23 A3002 RMK A01 T02290229  RH  100%=      5-min Rain = 0
KLA1 150037Z 31002KT 23/23 A3002 RMK A01 T02290229  RH  100%=      5-min Rain = 0
KLA1 150038Z 31003KT 23/23 A3002 RMK A01 T02290229  RH  100%=      5-min Rain = 0
KLA1 150039Z 31004KT 23/23 A3002 RMK A01 T02290229  RH  100%=      5-min Rain = 0
KLA1 150040Z 30004KT 23/23 A3002 RMK A01 T02290230  RH  100%=      5-min Rain = 0
KLA1 150041Z 30005KT 23/23 A3002 RMK A01 T02290230  RH  100%=      5-min Rain = 0
KLA1 150042Z 29005KT 23/23 A3002 RMK A01 T02300230  RH  100%=      5-min Rain = 0
KLA1 150043Z 30006KT 23/23 A3002 RMK A01 T02310231  RH  100%=      5-min Rain = 0
KLA1 150044Z 30007KT 23/23 A3002 RMK A01 T02310231  RH  100%=      5-min Rain = 0
KLA1 150045Z 30007KT 23/23 A3002 RMK A01 T02310231  RH  100%=      5-min Rain = 0
KLA1 150046Z 30005KT 23/23 A3002 RMK A01 T02300230  RH  100%=      5-min Rain = 0
KLA1 150047Z 31006KT 23/23 A3003 RMK A01 T02300230  RH  100%=      5-min Rain = 0
KLA1 150048Z 31005KT 23/23 A3003 RMK A01 T02290230  RH  100%=      5-min Rain = 0
KLA1 150049Z 34005KT 23/23 A3003 RMK A01 T02290230  RH  100%=      5-min Rain = 0
KLA1 150050Z 35003KT 23/23 A3003 RMK A01 T02290229  RH  100%=      5-min Rain = 0
KLA1 150051Z 01003KT 23/23 A3003 RMK A01 T02290229  RH  100%=      5-min Rain = 0
KLA1 150052Z 01003KT 23/23 A3003 RMK A01 T02290229  RH  100%=      5-min Rain = 0
KLA1 150053Z 01004KT 23/23 A3003 RMK A01 T02290229  RH  100%=      5-min Rain = 0
KLA1 150054Z 01003KT 23/23 A3003 RMK A01 T02290229  RH  100%=      5-min Rain = 0
KLA1 150055Z 01004KT 23/23 A3003 RMK A01 T02280229  RH  100%=      5-min Rain = 0
KLA1 150056Z 00003KT 23/23 A3003 RMK A01 T02280228  RH  100%=      5-min Rain = 0
KLA1 150057Z 34002KT 23/23 A3003 RMK A01 T02280229  RH  100%=      5-min Rain = 0
KLA1 150058Z 25002KT 23/23 A3003 RMK A01 T02290229  RH  100%=      5-min Rain = 0
KLA1 150059Z 24003KT 23/23 A3003 RMK A01 T02300230  RH  100%=      5-min Rain = 0
KLA1 150100Z 27001KT 23/23 A3003 RMK A01 T02290230  RH  100%=      5-min Rain = 0
KLA1 150101Z 30002KT 23/23 A3003 RMK A01 T02300230  RH  100%=      5-min Rain = 0
KLA1 150102Z 29001KT 23/23 A3003 RMK A01 T02300230  RH  100%=      5-min Rain = 0
KLA1 150103Z 28000KT 23/23 A3003 RMK A01 T02290227  RH  098%=      5-min Rain = 0
KLA1 150104Z 32000KT 23/23 A3003 RMK A01 T02290226  RH  098%=      5-min Rain = 0
KLA1 150105Z 32002KT 23/23 A3003 RMK A01 T02300227  RH  098%=      5-min Rain = 0
KLA1 150106Z 32001KT 23/23 A3003 RMK A01 T02300228  RH  098%=      5-min Rain = 0
KLA1 150107Z 32001KT 23/23 A3003 RMK A01 T02310230  RH  099%=      5-min Rain = 0
KLA1 150108Z 31002KT 23/23 A3003 RMK A01 T02320231  RH  099%=      5-min Rain = 0
KLA1 150109Z 31003KT 23/23 A3004 RMK A01 T02320231  RH  100%=      5-min Rain = 0
KLA1 150110Z 31003KT 23/23 A3004 RMK A01 T02320230  RH  099%=      5-min Rain = 0
KLA1 150111Z 31002KT 23/23 A3004 RMK A01 T02320229  RH  098%=      5-min Rain = 0
KLA1 150112Z 30002KT 23/23 A3004 RMK A01 T02320230  RH  099%=      5-min Rain = 0
KLA1 150113Z 30002KT 23/23 A3004 RMK A01 T02320231  RH  099%=      5-min Rain = 0
KLA1 150114Z 30000KT 23/23 A3004 RMK A01 T02320231  RH  099%=      5-min Rain = 0
KLA1 150115Z 30000KT 23/23 A3004 RMK A01 T02320230  RH  099%=      5-min Rain = 0
KLA1 150116Z 00000KT 23/23 A3004 RMK A01 T02320229  RH  098%=      5-min Rain = 0
KLA1 150117Z 00000KT 23/23 A3004 RMK A01 T02320229  RH  098%=      5-min Rain = 0
KLA1 150118Z 00000KT 23/23 A3004 RMK A01 T02320231  RH  099%=      5-min Rain = 0
KLA1 150119Z 00000KT 23/23 A3004 RMK A01 T02320232  RH  099%=      5-min Rain = 0
KLA1 150120Z 00000KT 23/23 A3004 RMK A01 T02330231  RH  099%=      5-min Rain = 0
KLA1 150121Z 04000KT 23/23 A3005 RMK A01 T02320228  RH  098%=      5-min Rain = 0
KLA1 150122Z 05002KT 23/23 A3005 RMK A01 T02310226  RH  097%=      5-min Rain = 0
KLA1 150123Z 05002KT 23/23 A3005 RMK A01 T02310226  RH  097%=      5-min Rain = 0
KLA1 150124Z 07002KT 23/23 A3005 RMK A01 T02310227  RH  098%=      5-min Rain = 0
KLA1 150125Z 07002KT 23/23 A3005 RMK A01 T02310228  RH  098%=      5-min Rain = 0
KLA1 150126Z 05001KT 23/23 A3005 RMK A01 T02300229  RH  099%=      5-min Rain = 0
KLA1 150127Z 05000KT 23/23 A3005 RMK A01 T02310229  RH  099%=      5-min Rain = 0
KLA1 150128Z 00000KT 23/23 A3005 RMK A01 T02310231  RH  100%=      5-min Rain = 0
KLA1 150129Z 00000KT 23/23 A3005 RMK A01 T02310231  RH  100%=      5-min Rain = 0
KLA1 150130Z 00000KT 23/23 A3005 RMK A01 T02310231  RH  100%=      5-min Rain = 0
KLA1 150131Z 00000KT 23/23 A3005 RMK A01 T02300231  RH  100%=      5-min Rain = 0
KLA1 150132Z 21001KT 23/23 A3005 RMK A01 T02300230  RH  100%=      5-min Rain = 0
KLA1 150133Z 21001KT 23/23 A3005 RMK A01 T02300230  RH  100%=      5-min Rain = 0
KLA1 150134Z 21002KT 23/23 A3005 RMK A01 T02300230  RH  100%=      5-min Rain = 0
KLA1 150135Z 19002KT 23/23 A3005 RMK A01 T02310231  RH  100%=      5-min Rain = 0
KLA1 150136Z 18003KT 23/23 A3006 RMK A01 T02310231  RH  100%=      5-min Rain = 0
KLA1 150137Z 18004KT 23/23 A3006 RMK A01 T02310231  RH  100%=      5-min Rain = 0
KLA1 150138Z 17004KT 23/23 A3006 RMK A01 T02300230  RH  100%=      5-min Rain = 0
KLA1 150139Z 16004KT 23/23 A3006 RMK A01 T02300230  RH  100%=      5-min Rain = 0
KLA1 150140Z 15004KT 23/23 A3006 RMK A01 T02300230  RH  100%=      5-min Rain = 0
KLA1 150141Z 15003KT 23/23 A3006 RMK A01 T02300230  RH  100%=      5-min Rain = 0
KLA1 150142Z 15003KT 23/23 A3006 RMK A01 T02300230  RH  100%=      5-min Rain = 0
KLA1 150143Z 14002KT 23/23 A3006 RMK A01 T02300230  RH  100%=      5-min Rain = 0
KLA1 150144Z 12001KT 23/23 A3006 RMK A01 T02300230  RH  100%=      5-min Rain = 0
KLA1 150145Z 09001KT 23/23 A3006 RMK A01 T02290229  RH  100%=      5-min Rain = 0
KLA1 150146Z 06001KT 23/23 A3006 RMK A01 T02280228  RH  100%=      5-min Rain = 0
KLA1 150147Z 05001KT 23/23 A3006 RMK A01 T02270228  RH  100%=      5-min Rain = 0
KLA1 150148Z 05002KT 23/23 A3006 RMK A01 T02270228  RH  100%=      5-min Rain = 0
KLA1 150149Z 05002KT 23/23 A3006 RMK A01 T02270227  RH  100%=      5-min Rain = 0
KLA1 150150Z 04002KT 23/23 A3006 RMK A01 T02270227  RH  100%=      5-min Rain = 0
KLA1 150151Z 03002KT 23/23 A3005 RMK A01 T02270227  RH  100%=      5-min Rain = 0
KLA1 150152Z 03001KT 23/23 A3005 RMK A01 T02270227  RH  100%=      5-min Rain = 0
KLA1 150153Z 03001KT 23/23 A3005 RMK A01 T02270227  RH  100%=      5-min Rain = 0
KLA1 150154Z 03001KT 23/23 A3005 RMK A01 T02270227  RH  100%=      5-min Rain = 0
KLA1 150155Z 03001KT 23/23 A3005 RMK A01 T02270227  RH  100%=      5-min Rain = 0
KLA1 150156Z 03001KT 23/23 A3005 RMK A01 T02260227  RH  100%=      5-min Rain = 0
KLA1 150157Z 04002KT 23/23 A3006 RMK A01 T02260227  RH  100%=      5-min Rain = 0
KLA1 150158Z 03002KT 23/23 A3006 RMK A01 T02260226  RH  100%=      5-min Rain = 0
KLA1 150159Z 03001KT 23/23 A3006 RMK A01 T02260226  RH  100%=      5-min Rain = 0
KLA1 150200Z 02001KT 23/23 A3006 RMK A01 T02260226  RH  100%=      5-min Rain = 0
KLA1 150201Z 02001KT 23/23 A3006 RMK A01 T02260226  RH  100%=      5-min Rain = 0
KLA1 150202Z 04001KT 23/23 A3006 RMK A01 T02270227  RH  100%=      5-min Rain = 0
KLA1 150203Z 04003KT 23/23 A3006 RMK A01 T02270227  RH  100%=      5-min Rain = 0
KLA1 150204Z 04003KT 23/23 A3006 RMK A01 T02270226  RH  100%=      5-min Rain = 0
KLA1 150205Z 04003KT 23/23 A3006 RMK A01 T02270226  RH  100%=      5-min Rain = 0
KLA1 150206Z 04004KT 23/23 A3006 RMK A01 T02270227  RH  100%=      5-min Rain = 0
KLA1 150207Z 04004KT 23/23 A3006 RMK A01 T02270227  RH  100%=      5-min Rain = 0
KLA1 150208Z 04003KT 23/23 A3006 RMK A01 T02270227  RH  100%=      5-min Rain = 0
KLA1 150209Z 05003KT 23/23 A3006 RMK A01 T02260226  RH  100%=      5-min Rain = 0
KLA1 150210Z 05003KT 23/23 A3006 RMK A01 T02250225  RH  100%=      5-min Rain = 0
KLA1 150211Z 05003KT 23/23 A3006 RMK A01 T02250225  RH  100%=      5-min Rain = 0
KLA1 150212Z 05003KT 23/23 A3006 RMK A01 T02250225  RH  100%=      5-min Rain = 0
KLA1 150213Z 03003KT 22/22 A3006 RMK A01 T02240224  RH  100%=      5-min Rain = 0
KLA1 150214Z 03003KT 22/22 A3006 RMK A01 T02240224  RH  100%=      5-min Rain = 0
KLA1 150215Z 03003KT 22/22 A3006 RMK A01 T02240224  RH  100%=      5-min Rain = 0
KLA1 150216Z 02003KT 22/23 A3006 RMK A01 T02240225  RH  100%=      5-min Rain = 0
KLA1 150217Z 04002KT 22/22 A3006 RMK A01 T02240224  RH  100%=      5-min Rain = 0
KLA1 150218Z 05002KT 22/22 A3007 RMK A01 T02240222  RH  098%=      5-min Rain = 0
KLA1 150219Z 13001KT 23/22 A3007 RMK A01 T02250217  RH  095%=      5-min Rain = 0
KLA1 150220Z 06002KT 23/21 A3007 RMK A01 T02260214  RH  093%=      5-min Rain = 0
KLA1 150221Z 07002KT 23/21 A3007 RMK A01 T02290213  RH  091%=      5-min Rain = 0
KLA1 150222Z 06002KT 23/21 A3007 RMK A01 T02310212  RH  089%=      5-min Rain = 0
KLA1 150223Z 06002KT 23/21 A3007 RMK A01 T02330212  RH  088%=      5-min Rain = 0
KLA1 150224Z 05001KT 23/21 A3007 RMK A01 T02330213  RH  088%=      5-min Rain = 0
KLA1 150225Z 07002KT 23/21 A3007 RMK A01 T02330212  RH  088%=      5-min Rain = 0
KLA1 150226Z 07001KT 23/21 A3007 RMK A01 T02340209  RH  086%=      5-min Rain = 0
KLA1 150227Z 05001KT 23/21 A3007 RMK A01 T02340210  RH  086%=      5-min Rain = 0
KLA1 150228Z 03001KT 24/21 A3008 RMK A01 T02350209  RH  085%=      5-min Rain = 0
KLA1 150229Z 06001KT 24/21 A3008 RMK A01 T02370208  RH  084%=      5-min Rain = 0
KLA1 150230Z 08001KT 24/21 A3008 RMK A01 T02380208  RH  083%=      5-min Rain = 0
KLA1 150231Z 09002KT 24/21 A3008 RMK A01 T02390209  RH  083%=      5-min Rain = 0
KLA1 150232Z 12002KT 24/21 A3008 RMK A01 T02390206  RH  082%=      5-min Rain = 0
KLA1 150233Z 13001KT 24/21 A3008 RMK A01 T02410205  RH  081%=      5-min Rain = 0
KLA1 150234Z 12001KT 24/21 A3008 RMK A01 T02420206  RH  081%=      5-min Rain = 0
KLA1 150235Z 11001KT 24/21 A3008 RMK A01 T02420206  RH  081%=      5-min Rain = 0
KLA1 150236Z 11001KT 24/21 A3008 RMK A01 T02420209  RH  082%=      5-min Rain = 0
KLA1 150237Z 10001KT 24/21 A3008 RMK A01 T02410210  RH  083%=      5-min Rain = 0
KLA1 150238Z 12000KT 24/21 A3008 RMK A01 T02390209  RH  083%=      5-min Rain = 0
KLA1 150239Z 10001KT 24/21 A3008 RMK A01 T02390210  RH  084%=      5-min Rain = 0
KLA1 150240Z 08000KT 24/21 A3008 RMK A01 T02380209  RH  084%=      5-min Rain = 0
KLA1 150241Z 09001KT 24/21 A3008 RMK A01 T02370211  RH  085%=      5-min Rain = 0
KLA1 150242Z 11001KT 24/21 A3008 RMK A01 T02360213  RH  087%=      5-min Rain = 0
KLA1 150243Z 11000KT 24/22 A3008 RMK A01 T02350216  RH  089%=      5-min Rain = 0
KLA1 150244Z 11000KT 23/22 A3008 RMK A01 T02340218  RH  091%=      5-min Rain = 0
KLA1 150245Z 09000KT 23/22 A3008 RMK A01 T02330218  RH  092%=      5-min Rain = 0
KLA1 150246Z 00000KT 23/22 A3008 RMK A01 T02310217  RH  092%=      5-min Rain = 0
KLA1 150247Z 06000KT 23/22 A3008 RMK A01 T02310215  RH  091%=      5-min Rain = 0
KLA1 150248Z 06001KT 23/21 A3008 RMK A01 T02300213  RH  090%=      5-min Rain = 0
KLA1 150249Z 05000KT 23/21 A3008 RMK A01 T02310212  RH  089%=      5-min Rain = 0
KLA1 150250Z 03001KT 23/22 A3008 RMK A01 T02310215  RH  091%=      5-min Rain = 0
KLA1 150251Z 02001KT 23/22 A3008 RMK A01 T02320217  RH  092%=      5-min Rain = 0
KLA1 150252Z 02002KT 23/22 A3008 RMK A01 T02310219  RH  093%=      5-min Rain = 0
KLA1 150253Z 02002KT 23/22 A3008 RMK A01 T02300220  RH  094%=      5-min Rain = 0
KLA1 150254Z 02001KT 23/22 A3008 RMK A01 T02290220  RH  094%=      5-min Rain = 0
KLA1 150255Z 03001KT 23/22 A3008 RMK A01 T02290220  RH  095%=      5-min Rain = 0
KLA1 150256Z 03001KT 23/22 A3008 RMK A01 T02280221  RH  096%=      5-min Rain = 0
KLA1 150257Z 05001KT 23/22 A3008 RMK A01 T02280221  RH  096%=      5-min Rain = 0
KLA1 150258Z 06001KT 23/22 A3008 RMK A01 T02270222  RH  097%=      5-min Rain = 0
KLA1 150259Z 06001KT 23/22 A3008 RMK A01 T02270222  RH  097%=      5-min Rain = 0
KLA1 150300Z 04002KT 23/22 A3008 RMK A01 T02260222  RH  097%=      5-min Rain = 0
KLA1 150301Z 03002KT 23/22 A3008 RMK A01 T02260222  RH  097%=      5-min Rain = 0
KLA1 150302Z 03002KT 23/22 A3008 RMK A01 T02260223  RH  098%=      5-min Rain = 0
KLA1 150303Z 01003KT 23/22 A3008 RMK A01 T02260223  RH  098%=      5-min Rain = 0
KLA1 150304Z 01004KT 23/22 A3008 RMK A01 T02250223  RH  099%=      5-min Rain = 0
KLA1 150305Z 01003KT 23/22 A3008 RMK A01 T02250222  RH  098%=      5-min Rain = 0
KLA1 150306Z 01003KT 23/22 A3008 RMK A01 T02250222  RH  098%=      5-min Rain = 0
KLA1 150307Z 02003KT 23/22 A3008 RMK A01 T02250221  RH  097%=      5-min Rain = 0
KLA1 150308Z 02003KT 23/22 A3008 RMK A01 T02260221  RH  097%=      5-min Rain = 0
KLA1 150309Z 01004KT 23/22 A3008 RMK A01 T02260221  RH  097%=      5-min Rain = 0
KLA1 150310Z 01003KT 23/22 A3008 RMK A01 T02260221  RH  097%=      5-min Rain = 0
KLA1 150311Z 01004KT 23/22 A3008 RMK A01 T02260222  RH  098%=      5-min Rain = 0
KLA1 150312Z 02003KT 23/22 A3008 RMK A01 T02260223  RH  098%=      5-min Rain = 0
KLA1 150313Z 02003KT 23/22 A3008 RMK A01 T02250223  RH  099%=      5-min Rain = 0
KLA1 150314Z 02003KT 23/22 A3008 RMK A01 T02250224  RH  100%=      5-min Rain = 0
KLA1 150315Z 02003KT 22/22 A3008 RMK A01 T02240224  RH  100%=      5-min Rain = 0
KLA1 150316Z 02004KT 22/22 A3008 RMK A01 T02230223  RH  100%=      5-min Rain = 0
KLA1 150317Z 02004KT 22/22 A3008 RMK A01 T02230223  RH  100%=      5-min Rain = 0
KLA1 150318Z 02004KT 22/22 A3008 RMK A01 T02220222  RH  100%=      5-min Rain = 0
KLA1 150319Z 02004KT 22/22 A3008 RMK A01 T02220222  RH  100%=      5-min Rain = 0
KLA1 150320Z 02004KT 22/22 A3008 RMK A01 T02220222  RH  100%=      5-min Rain = 0
KLA1 150321Z 01004KT 22/22 A3008 RMK A01 T02210222  RH  100%=      5-min Rain = 0
KLA1 150322Z 01004KT 22/22 A3008 RMK A01 T02210222  RH  100%=      5-min Rain = 0
KLA1 150323Z 00004KT 22/22 A3008 RMK A01 T02220222  RH  100%=      5-min Rain = 0
KLA1 150324Z 36004KT 22/22 A3008 RMK A01 T02220222  RH  100%=      5-min Rain = 0
KLA1 150325Z 00003KT 22/22 A3008 RMK A01 T02220222  RH  100%=      5-min Rain = 0
KLA1 150326Z 00004KT 22/22 A3008 RMK A01 T02220223  RH  100%=      5-min Rain = 0
KLA1 150327Z 00004KT 22/22 A3008 RMK A01 T02230223  RH  100%=      5-min Rain = 0
KLA1 150328Z 01003KT 22/22 A3008 RMK A01 T02230222  RH  099%=      5-min Rain = 0
KLA1 150329Z 01003KT 22/22 A3008 RMK A01 T02240221  RH  098%=      5-min Rain = 0
KLA1 150330Z 00002KT 22/22 A3008 RMK A01 T02240221  RH  098%=      5-min Rain = 0
KLA1 150331Z 34002KT 23/22 A3008 RMK A01 T02250220  RH  097%=      5-min Rain = 0
KLA1 150332Z 32000KT 23/22 A3008 RMK A01 T02250221  RH  097%=      5-min Rain = 0
KLA1 150333Z 32000KT 23/22 A3008 RMK A01 T02250221  RH  098%=      5-min Rain = 0
KLA1 150334Z 29001KT 23/22 A3008 RMK A01 T02250222  RH  098%=      5-min Rain = 0
KLA1 150335Z 29002KT 23/22 A3008 RMK A01 T02250224  RH  099%=      5-min Rain = 0
KLA1 150336Z 31003KT 23/23 A3008 RMK A01 T02250225  RH  100%=      5-min Rain = 0
KLA1 150337Z 31003KT 23/23 A3008 RMK A01 T02250225  RH  100%=      5-min Rain = 0
KLA1 150338Z 31003KT 23/23 A3008 RMK A01 T02250226  RH  100%=      5-min Rain = 0
KLA1 150339Z 30003KT 23/23 A3008 RMK A01 T02250225  RH  100%=      5-min Rain = 0
KLA1 150340Z 30003KT 23/23 A3008 RMK A01 T02250225  RH  100%=      5-min Rain = 0
KLA1 150341Z 30003KT 23/23 A3008 RMK A01 T02250225  RH  100%=      5-min Rain = 0
KLA1 150342Z 30003KT 23/23 A3008 RMK A01 T02250225  RH  100%=      5-min Rain = 0
KLA1 150343Z 30002KT 23/23 A3008 RMK A01 T02250225  RH  100%=      5-min Rain = 0
KLA1 150344Z 31002KT 23/23 A3008 RMK A01 T02250225  RH  100%=      5-min Rain = 0
KLA1 150345Z 32002KT 22/22 A3008 RMK A01 T02240224  RH  100%=      5-min Rain = 0
KLA1 150346Z 32002KT 22/22 A3008 RMK A01 T02240223  RH  100%=      5-min Rain = 0
KLA1 150347Z 33002KT 22/22 A3009 RMK A01 T02240223  RH  099%=      5-min Rain = 0
KLA1 150348Z 35001KT 22/22 A3009 RMK A01 T02240222  RH  099%=      5-min Rain = 0
KLA1 150349Z 02001KT 23/22 A3009 RMK A01 T02250222  RH  098%=      5-min Rain = 0
KLA1 150350Z 03001KT 23/22 A3009 RMK A01 T02250220  RH  097%=      5-min Rain = 0
KLA1 150351Z 01001KT 23/22 A3009 RMK A01 T02250219  RH  096%=      5-min Rain = 0
KLA1 150352Z 01000KT 23/22 A3009 RMK A01 T02250220  RH  097%=      5-min Rain = 0
KLA1 150353Z 35001KT 23/22 A3009 RMK A01 T02260220  RH  097%=      5-min Rain = 0
KLA1 150354Z 36001KT 23/22 A3009 RMK A01 T02260220  RH  097%=      5-min Rain = 0
KLA1 150355Z 36001KT 23/22 A3009 RMK A01 T02250220  RH  097%=      5-min Rain = 0
KLA1 150356Z 35001KT 23/22 A3009 RMK A01 T02260220  RH  097%=      5-min Rain = 0
KLA1 150357Z 35002KT 23/22 A3009 RMK A01 T02260218  RH  095%=      5-min Rain = 0
KLA1 150358Z 35003KT 23/22 A3009 RMK A01 T02270218  RH  094%=      5-min Rain = 0
KLA1 150359Z 34003KT 23/22 A3009 RMK A01 T02280217  RH  094%=      5-min Rain = 0
KLA1 150400Z 26001KT 23/22 A3009 RMK A01 T02280217  RH  093%=      5-min Rain = 0
KLA1 150401Z 26001KT 23/22 A3009 RMK A01 T02290220  RH  095%=      5-min Rain = 0
KLA1 150402Z 26000KT 23/22 A3009 RMK A01 T02290219  RH  094%=      5-min Rain = 0
KLA1 150403Z 00000KT 23/22 A3009 RMK A01 T02300220  RH  095%=      5-min Rain = 0
KLA1 150404Z 00000KT 23/22 A3009 RMK A01 T02300223  RH  096%=      5-min Rain = 0
KLA1 150405Z 00000KT 23/22 A3009 RMK A01 T02300223  RH  096%=      5-min Rain = 0
KLA1 150406Z 00000KT 23/22 A3009 RMK A01 T02300224  RH  096%=      5-min Rain = 0
KLA1 150407Z 27001KT 23/23 A3009 RMK A01 T02300225  RH  097%=      5-min Rain = 0
KLA1 150408Z 26000KT 23/23 A3009 RMK A01 T02290226  RH  098%=      5-min Rain = 0
KLA1 150409Z 26000KT 23/23 A3009 RMK A01 T02290227  RH  099%=      5-min Rain = 0
KLA1 150410Z 00000KT 23/23 A3009 RMK A01 T02280228  RH  100%=      5-min Rain = 0
KLA1 150411Z 26000KT 23/23 A3009 RMK A01 T02280228  RH  100%=      5-min Rain = 0
KLA1 150412Z 00000KT 23/23 A3009 RMK A01 T02270227  RH  100%=      5-min Rain = 0
KLA1 150413Z 00000KT 23/23 A3009 RMK A01 T02260226  RH  100%=      5-min Rain = 0
KLA1 150414Z 00000KT 23/23 A3009 RMK A01 T02250225  RH  100%=      5-min Rain = 0
KLA1 150415Z 00000KT 22/22 A3009 RMK A01 T02240224  RH  100%=      5-min Rain = 0
KLA1 150416Z 17000KT 22/22 A3009 RMK A01 T02240224  RH  100%=      5-min Rain = 0
KLA1 150417Z 17001KT 22/22 A3009 RMK A01 T02230223  RH  100%=      5-min Rain = 0
KLA1 150418Z 17001KT 22/22 A3009 RMK A01 T02230223  RH  100%=      5-min Rain = 0
KLA1 150419Z 18000KT 22/22 A3009 RMK A01 T02220223  RH  100%=      5-min Rain = 0
KLA1 150420Z 00000KT 22/22 A3009 RMK A01 T02220222  RH  100%=      5-min Rain = 0
KLA1 150421Z 00000KT 22/22 A3009 RMK A01 T02220222  RH  100%=      5-min Rain = 0
KLA1 150422Z 00000KT 22/22 A3008 RMK A01 T02220222  RH  100%=      5-min Rain = 0
KLA1 150423Z 00000KT 22/22 A3008 RMK A01 T02210221  RH  100%=      5-min Rain = 0
KLA1 150424Z 00000KT 22/22 A3008 RMK A01 T02200221  RH  100%=      5-min Rain = 0
KLA1 150425Z 00000KT 22/22 A3008 RMK A01 T02200220  RH  100%=      5-min Rain = 0
KLA1 150426Z 00000KT 22/22 A3008 RMK A01 T02200220  RH  100%=      5-min Rain = 0
KLA1 150427Z 00000KT 22/22 A3008 RMK A01 T02200220  RH  100%=      5-min Rain = 0
KLA1 150428Z 00000KT 22/22 A3008 RMK A01 T02190219  RH  100%=      5-min Rain = 0
KLA1 150429Z 14001KT 22/22 A3008 RMK A01 T02190219  RH  100%=      5-min Rain = 0
KLA1 150430Z 14001KT 22/22 A3008 RMK A01 T02190220  RH  100%=      5-min Rain = 0
KLA1 150431Z 14001KT 22/22 A3009 RMK A01 T02190219  RH  100%=      5-min Rain = 0
KLA1 150432Z 14001KT 22/22 A3009 RMK A01 T02190220  RH  100%=      5-min Rain = 0
KLA1 150433Z 14001KT 22/22 A3009 RMK A01 T02190219  RH  100%=      5-min Rain = 0
KLA1 150434Z 14000KT 22/22 A3009 RMK A01 T02190219  RH  100%=      5-min Rain = 0
KLA1 150435Z 00000KT 22/22 A3009 RMK A01 T02190219  RH  100%=      5-min Rain = 0
KLA1 150436Z 00000KT 22/22 A3009 RMK A01 T02180218  RH  100%=      5-min Rain = 0
KLA1 150437Z 00000KT 22/22 A3009 RMK A01 T02180218  RH  100%=      5-min Rain = 0
KLA1 150438Z 00000KT 22/22 A3009 RMK A01 T02180218  RH  100%=      5-min Rain = 0
KLA1 150439Z 00000KT 22/22 A3009 RMK A01 T02180218  RH  100%=      5-min Rain = 0
KLA1 150440Z 00000KT 22/22 A3009 RMK A01 T02180218  RH  100%=      5-min Rain = 0
KLA1 150441Z 00000KT 22/22 A3009 RMK A01 T02180218  RH  100%=      5-min Rain = 0
KLA1 150442Z 00000KT 22/22 A3009 RMK A01 T02180218  RH  100%=      5-min Rain = 0
KLA1 150443Z 00000KT 22/22 A3009 RMK A01 T02180219  RH  100%=      5-min Rain = 0
KLA1 150444Z 00000KT 22/22 A3009 RMK A01 T02190219  RH  100%=      5-min Rain = 0
KLA1 150445Z 00000KT 22/22 A3009 RMK A01 T02190219  RH  100%=      5-min Rain = 0
KLA1 150446Z 00000KT 22/22 A3009 RMK A01 T02190219  RH  100%=      5-min Rain = 0
KLA1 150447Z 00000KT 22/22 A3009 RMK A01 T02180218  RH  100%=      5-min Rain = 0
KLA1 150448Z 00000KT 22/22 A3009 RMK A01 T02170218  RH  100%=      5-min Rain = 0
KLA1 150449Z 00000KT 22/22 A3009 RMK A01 T02170217  RH  100%=      5-min Rain = 0
KLA1 150450Z 00000KT 22/22 A3009 RMK A01 T02180218  RH  100%=      5-min Rain = 0
KLA1 150451Z 00000KT 22/22 A3009 RMK A01 T02170218  RH  100%=      5-min Rain = 0
KLA1 150452Z 00000KT 22/22 A3009 RMK A01 T02170218  RH  100%=      5-min Rain = 0
KLA1 150453Z 00000KT 22/22 A3009 RMK A01 T02170218  RH  100%=      5-min Rain = 0
KLA1 150454Z 00000KT 22/22 A3009 RMK A01 T02170218  RH  100%=      5-min Rain = 0
KLA1 150455Z 00000KT 22/22 A3009 RMK A01 T02170217  RH  100%=      5-min Rain = 0
KLA1 150456Z 14000KT 22/22 A3009 RMK A01 T02170217  RH  100%=      5-min Rain = 0
KLA1 150457Z 13001KT 22/22 A3009 RMK A01 T02160216  RH  100%=      5-min Rain = 0
KLA1 150458Z 11001KT 22/22 A3009 RMK A01 T02160217  RH  100%=      5-min Rain = 0
KLA1 150459Z 11001KT 22/22 A3009 RMK A01 T02160216  RH  100%=      5-min Rain = 0

Page generated in 0.1489 seconds.